Wetterdaten: Dienstag, 17.03.2026
Datum Zeit Temp. Aussen Temp. o. S. Temp +5cm Feuchte Auss Luftdruck Regen Sonnenschein Solar Windböen Empfang
17.03.2026 00:00 7,3 °C 6,1 °C 2,8 °C 82 % 1020,8 hPa 0,0 l/m² 0 min 0 W/m² 6,4 km/h (2 Bft) 100,00 %
17.03.2026 00:05 7,3 °C 6,1 °C 2,8 °C 82 % 1020,6 hPa 0,0 l/m² 0 min 0 W/m² 6,4 km/h (2 Bft) 100,00 %
17.03.2026 00:10 7,3 °C 6,1 °C 2,8 °C 83 % 1020,7 hPa 0,0 l/m² 0 min 0 W/m² 6,4 km/h (2 Bft) 100,00 %
17.03.2026 00:15 7,3 °C 6,7 °C 2,8 °C 83 % 1020,7 hPa 0,0 l/m² 0 min 0 W/m² 6,4 km/h (2 Bft) 100,00 %
17.03.2026 00:20 7,3 °C 6,7 °C 2,8 °C 83 % 1020,6 hPa 0,0 l/m² 0 min 0 W/m² 9,7 km/h (2 Bft) 100,00 %
17.03.2026 00:25 7,3 °C 6,1 °C 2,8 °C 84 % 1020,7 hPa 0,0 l/m² 0 min 0 W/m² 6,4 km/h (2 Bft) 100,00 %
17.03.2026 00:30 7,2 °C 6,1 °C 2,8 °C 84 % 1020,7 hPa 0,0 l/m² 0 min 0 W/m² 6,4 km/h (2 Bft) 100,00 %
17.03.2026 00:35 7,2 °C 6,1 °C 2,8 °C 84 % 1020,7 hPa 0,0 l/m² 0 min 0 W/m² 6,4 km/h (2 Bft) 100,00 %
17.03.2026 00:40 7,2 °C 6,1 °C 2,8 °C 85 % 1020,7 hPa 0,0 l/m² 0 min 0 W/m² 6,4 km/h (2 Bft) 100,00 %
17.03.2026 00:45 7,2 °C 6,1 °C 2,8 °C 85 % 1020,7 hPa 0,0 l/m² 0 min 0 W/m² 9,7 km/h (2 Bft) 100,00 %
17.03.2026 00:50 7,1 °C 6,1 °C 2,8 °C 86 % 1020,6 hPa 0,0 l/m² 0 min 0 W/m² 6,4 km/h (2 Bft) 100,00 %
17.03.2026 00:55 7,1 °C 6,1 °C 2,8 °C 86 % 1020,6 hPa 0,0 l/m² 0 min 0 W/m² 9,7 km/h (2 Bft) 99,12 %
17.03.2026 01:00 7,1 °C 6,1 °C 2,8 °C 86 % 1020,6 hPa 0,0 l/m² 0 min 0 W/m² 6,4 km/h (2 Bft) 100,00 %
17.03.2026 01:05 7,1 °C 6,1 °C 2,8 °C 86 % 1020,7 hPa 0,0 l/m² 0 min 0 W/m² 9,7 km/h (2 Bft) 100,00 %
17.03.2026 01:10 7,1 °C 6,7 °C 2,8 °C 87 % 1020,7 hPa 0,0 l/m² 0 min 0 W/m² 12,9 km/h (3 Bft) 99,12 %
17.03.2026 01:15 7,2 °C 6,7 °C 2,8 °C 87 % 1020,7 hPa 0,0 l/m² 0 min 0 W/m² 12,9 km/h (3 Bft) 97,37 %
17.03.2026 01:20 7,2 °C 6,1 °C 2,8 °C 87 % 1020,6 hPa 0,0 l/m² 0 min 0 W/m² 9,7 km/h (2 Bft) 97,37 %
17.03.2026 01:25 7,2 °C 6,1 °C 2,8 °C 88 % 1020,6 hPa 0,0 l/m² 0 min 0 W/m² 12,9 km/h (3 Bft) 98,25 %
17.03.2026 01:30 7,2 °C 6,1 °C 2,8 °C 88 % 1020,7 hPa 0,0 l/m² 0 min 0 W/m² 6,4 km/h (2 Bft) 99,12 %
17.03.2026 01:35 7,2 °C 6,1 °C 2,8 °C 88 % 1020,7 hPa 0,0 l/m² 0 min 0 W/m² 9,7 km/h (2 Bft) 100,00 %
17.03.2026 01:40 7,2 °C 6,1 °C 2,8 °C 88 % 1020,6 hPa 0,0 l/m² 0 min 0 W/m² 9,7 km/h (2 Bft) 100,00 %
17.03.2026 01:45 7,2 °C 6,1 °C 2,8 °C 88 % 1020,6 hPa 0,0 l/m² 0 min 0 W/m² 9,7 km/h (2 Bft) 100,00 %
17.03.2026 01:50 7,2 °C 6,1 °C 2,8 °C 88 % 1020,6 hPa 0,0 l/m² 0 min 0 W/m² 6,4 km/h (2 Bft) 100,00 %
17.03.2026 01:55 7,2 °C 6,1 °C 2,8 °C 89 % 1020,5 hPa 0,0 l/m² 0 min 0 W/m² 6,4 km/h (2 Bft) 100,00 %
17.03.2026 02:00 7,2 °C 6,1 °C 2,8 °C 89 % 1020,5 hPa 0,0 l/m² 0 min 0 W/m² 6,4 km/h (2 Bft) 99,12 %
17.03.2026 02:05 7,2 °C 6,1 °C 2,8 °C 89 % 1020,5 hPa 0,0 l/m² 0 min 0 W/m² 6,4 km/h (2 Bft) 100,00 %
17.03.2026 02:10 7,1 °C 6,1 °C 2,8 °C 89 % 1020,5 hPa 0,0 l/m² 0 min 0 W/m² 3,2 km/h (1 Bft) 100,00 %
17.03.2026 02:15 7,1 °C 6,1 °C 2,8 °C 89 % 1020,5 hPa 0,0 l/m² 0 min 0 W/m² 6,4 km/h (2 Bft) 100,00 %
17.03.2026 02:20 7,1 °C 6,1 °C 2,8 °C 89 % 1020,5 hPa 0,0 l/m² 0 min 0 W/m² 6,4 km/h (2 Bft) 100,00 %
17.03.2026 02:25 7,1 °C 6,1 °C 2,8 °C 89 % 1020,5 hPa 0,0 l/m² 0 min 0 W/m² 6,4 km/h (2 Bft) 72,81 %
17.03.2026 02:30 7,1 °C 6,1 °C 2,8 °C 89 % 1020,6 hPa 0,0 l/m² 0 min 0 W/m² 3,2 km/h (1 Bft) 100,00 %
17.03.2026 02:35 7,1 °C 6,1 °C 2,8 °C 90 % 1020,6 hPa 0,0 l/m² 0 min 0 W/m² 6,4 km/h (2 Bft) 99,12 %
17.03.2026 02:40 7,2 °C 6,7 °C 2,8 °C 90 % 1020,6 hPa 0,0 l/m² 0 min 0 W/m² 3,2 km/h (1 Bft) 100,00 %
17.03.2026 02:45 7,2 °C 6,7 °C 2,8 °C 90 % 1020,6 hPa 0,0 l/m² 0 min 0 W/m² 6,4 km/h (2 Bft) 99,12 %
17.03.2026 02:50 7,2 °C 6,7 °C 2,8 °C 90 % 1020,7 hPa 0,0 l/m² 0 min 0 W/m² 6,4 km/h (2 Bft) 100,00 %
17.03.2026 02:55 7,2 °C 6,7 °C 2,8 °C 90 % 1020,7 hPa 0,0 l/m² 0 min 0 W/m² 3,2 km/h (1 Bft) 100,00 %
17.03.2026 03:00 7,2 °C 6,7 °C 2,8 °C 90 % 1020,7 hPa 0,0 l/m² 0 min 0 W/m² 6,4 km/h (2 Bft) 100,00 %
17.03.2026 03:05 7,2 °C 6,7 °C 2,8 °C 90 % 1020,6 hPa 0,0 l/m² 0 min 0 W/m² 6,4 km/h (2 Bft) 99,12 %
17.03.2026 03:10 7,2 °C 6,7 °C 2,8 °C 91 % 1020,6 hPa 0,0 l/m² 0 min 0 W/m² 3,2 km/h (1 Bft) 98,25 %
17.03.2026 03:15 7,2 °C 6,7 °C 2,8 °C 91 % 1020,5 hPa 0,0 l/m² 0 min 0 W/m² 3,2 km/h (1 Bft) 98,25 %
17.03.2026 03:20 7,3 °C 6,7 °C 2,8 °C 91 % 1020,5 hPa 0,0 l/m² 0 min 0 W/m² 6,4 km/h (2 Bft) 99,12 %
17.03.2026 03:25 7,3 °C 6,7 °C 2,8 °C 91 % 1020,3 hPa 0,0 l/m² 0 min 0 W/m² 6,4 km/h (2 Bft) 97,37 %
17.03.2026 03:30 7,3 °C 6,7 °C 2,8 °C 91 % 1020,4 hPa 0,0 l/m² 0 min 0 W/m² 3,2 km/h (1 Bft) 97,37 %
17.03.2026 03:35 7,3 °C 6,7 °C 2,8 °C 91 % 1020,4 hPa 0,0 l/m² 0 min 0 W/m² 6,4 km/h (2 Bft) 100,00 %
17.03.2026 03:40 7,3 °C 6,7 °C 2,8 °C 91 % 1020,3 hPa 0,0 l/m² 0 min 0 W/m² 6,4 km/h (2 Bft) 98,25 %
17.03.2026 03:45 7,3 °C 6,7 °C 2,8 °C 91 % 1020,3 hPa 0,0 l/m² 0 min 0 W/m² 6,4 km/h (2 Bft) 100,00 %
17.03.2026 03:50 7,3 °C 6,7 °C 2,8 °C 91 % 1020,3 hPa 0,0 l/m² 0 min 0 W/m² 6,4 km/h (2 Bft) 100,00 %
17.03.2026 03:55 7,3 °C 6,7 °C 2,8 °C 91 % 1020,1 hPa 0,0 l/m² 0 min 0 W/m² 6,4 km/h (2 Bft) 100,00 %
17.03.2026 04:00 7,3 °C 6,7 °C 2,8 °C 92 % 1020,1 hPa 0,0 l/m² 0 min 0 W/m² 6,4 km/h (2 Bft) 100,00 %
17.03.2026 04:05 7,3 °C 6,7 °C 2,8 °C 92 % 1020,1 hPa 0,0 l/m² 0 min 0 W/m² 9,7 km/h (2 Bft) 100,00 %
17.03.2026 04:10 7,3 °C 6,7 °C 2,8 °C 92 % 1020,2 hPa 0,0 l/m² 0 min 0 W/m² 6,4 km/h (2 Bft) 100,00 %
17.03.2026 04:15 7,3 °C 6,7 °C 2,8 °C 92 % 1020,3 hPa 0,0 l/m² 0 min 0 W/m² 6,4 km/h (2 Bft) 100,00 %
17.03.2026 04:20 7,4 °C 6,7 °C 2,8 °C 92 % 1020,3 hPa 0,0 l/m² 0 min 0 W/m² 9,7 km/h (2 Bft) 100,00 %
17.03.2026 04:25 7,4 °C 6,7 °C 3,3 °C 92 % 1020,4 hPa 0,0 l/m² 0 min 0 W/m² 6,4 km/h (2 Bft) 100,00 %
17.03.2026 04:30 7,4 °C 6,7 °C 3,3 °C 92 % 1020,5 hPa 0,0 l/m² 0 min 0 W/m² 9,7 km/h (2 Bft) 100,00 %
17.03.2026 04:35 7,4 °C 6,7 °C 3,3 °C 92 % 1020,5 hPa 0,0 l/m² 0 min 0 W/m² 9,7 km/h (2 Bft) 100,00 %
17.03.2026 04:40 7,4 °C 6,7 °C 3,3 °C 92 % 1020,5 hPa 0,0 l/m² 0 min 0 W/m² 6,4 km/h (2 Bft) 100,00 %
17.03.2026 04:45 7,5 °C 6,7 °C 3,3 °C 92 % 1020,4 hPa 0,0 l/m² 0 min 0 W/m² 6,4 km/h (2 Bft) 100,00 %
17.03.2026 04:50 7,5 °C 6,7 °C 3,3 °C 92 % 1020,3 hPa 0,0 l/m² 0 min 0 W/m² 9,7 km/h (2 Bft) 100,00 %
17.03.2026 04:55 7,5 °C 6,7 °C 3,3 °C 92 % 1020,4 hPa 0,0 l/m² 0 min 0 W/m² 6,4 km/h (2 Bft) 100,00 %
17.03.2026 05:00 7,5 °C 7,2 °C 3,3 °C 92 % 1020,4 hPa 0,0 l/m² 0 min 0 W/m² 6,4 km/h (2 Bft) 96,49 %
17.03.2026 05:05 7,6 °C 7,2 °C 3,3 °C 92 % 1020,5 hPa 0,0 l/m² 0 min 0 W/m² 6,4 km/h (2 Bft) 98,25 %
17.03.2026 05:10 7,6 °C 7,2 °C 3,3 °C 92 % 1020,5 hPa 0,0 l/m² 0 min 0 W/m² 19,3 km/h (3 Bft) 98,25 %
17.03.2026 05:15 7,6 °C 7,2 °C 3,3 °C 92 % 1020,5 hPa 0,0 l/m² 0 min 0 W/m² 6,4 km/h (2 Bft) 97,37 %
17.03.2026 05:20 7,6 °C 7,2 °C 3,3 °C 92 % 1020,6 hPa 0,0 l/m² 0 min 0 W/m² 9,7 km/h (2 Bft) 98,25 %
17.03.2026 05:25 7,6 °C 7,2 °C 3,3 °C 92 % 1020,6 hPa 0,0 l/m² 0 min 0 W/m² 6,4 km/h (2 Bft) 98,25 %
17.03.2026 05:30 7,6 °C 7,2 °C 3,3 °C 92 % 1020,6 hPa 0,0 l/m² 0 min 0 W/m² 6,4 km/h (2 Bft) 99,12 %
17.03.2026 05:35 7,7 °C 7,2 °C 3,3 °C 92 % 1020,6 hPa 0,0 l/m² 0 min 0 W/m² 6,4 km/h (2 Bft) 100,00 %
17.03.2026 05:40 7,7 °C 7,2 °C 3,3 °C 92 % 1020,6 hPa 0,0 l/m² 0 min 0 W/m² 6,4 km/h (2 Bft) 100,00 %
17.03.2026 05:45 7,7 °C 7,2 °C 3,3 °C 92 % 1020,6 hPa 0,0 l/m² 0 min 0 W/m² 6,4 km/h (2 Bft) 100,00 %
17.03.2026 05:50 7,7 °C 7,2 °C 3,3 °C 92 % 1020,6 hPa 0,0 l/m² 0 min 0 W/m² 9,7 km/h (2 Bft) 98,25 %
17.03.2026 05:55 7,7 °C 7,2 °C 3,3 °C 92 % 1020,5 hPa 0,0 l/m² 0 min 0 W/m² 6,4 km/h (2 Bft) 100,00 %
17.03.2026 06:00 7,7 °C 7,2 °C 3,3 °C 92 % 1020,6 hPa 0,0 l/m² 0 min 0 W/m² 6,4 km/h (2 Bft) 100,00 %
17.03.2026 06:05 7,7 °C 7,2 °C 3,3 °C 92 % 1020,6 hPa 0,0 l/m² 0 min 0 W/m² 9,7 km/h (2 Bft) 100,00 %
17.03.2026 06:10 7,7 °C 7,2 °C 3,3 °C 92 % 1020,6 hPa 0,0 l/m² 0 min 0 W/m² 9,7 km/h (2 Bft) 100,00 %
17.03.2026 06:15 7,7 °C 7,2 °C 3,3 °C 92 % 1020,6 hPa 0,0 l/m² 0 min 0 W/m² 6,4 km/h (2 Bft) 100,00 %
17.03.2026 06:20 7,7 °C 6,7 °C 3,3 °C 92 % 1020,6 hPa 0,0 l/m² 0 min 0 W/m² 3,2 km/h (1 Bft) 100,00 %
17.03.2026 06:25 7,7 °C 7,2 °C 3,3 °C 92 % 1020,7 hPa 0,0 l/m² 0 min 0 W/m² 6,4 km/h (2 Bft) 100,00 %
17.03.2026 06:30 7,7 °C 7,2 °C 3,3 °C 92 % 1020,6 hPa 0,0 l/m² 0 min 0 W/m² 6,4 km/h (2 Bft) 100,00 %
17.03.2026 06:34 7,7 °C 7,2 °C 3,3 °C 92 % 1020,7 hPa 0,0 l/m² 0 min 0 W/m² 6,4 km/h (2 Bft) 100,00 %
17.03.2026 06:36 7,7 °C 7,2 °C 3,3 °C 92 % 1020,7 hPa 0,0 l/m² 0 min 0 W/m² 6,4 km/h (2 Bft) 93,62 %
17.03.2026 06:38 7,7 °C 7,2 °C 3,3 °C 92 % 1020,7 hPa 0,0 l/m² 0 min 0 W/m² 0,0 km/h (0 Bft) 100,00 %
17.03.2026 06:40 7,7 °C 7,2 °C 3,3 °C 92 % 1020,8 hPa 0,0 l/m² 0 min 0 W/m² 6,4 km/h (2 Bft) 100,00 %
17.03.2026 06:42 7,7 °C 7,2 °C 3,3 °C 92 % 1020,8 hPa 0,0 l/m² 0 min 0 W/m² 6,4 km/h (2 Bft) 100,00 %
17.03.2026 06:44 7,7 °C 7,2 °C 3,3 °C 92 % 1020,8 hPa 0,0 l/m² 0 min 0 W/m² 3,2 km/h (1 Bft) 100,00 %
17.03.2026 06:46 7,7 °C 7,2 °C 3,3 °C 92 % 1020,8 hPa 0,0 l/m² 0 min 0 W/m² 3,2 km/h (1 Bft) 97,87 %
17.03.2026 06:48 7,7 °C 7,2 °C 3,3 °C 92 % 1020,8 hPa 0,0 l/m² 0 min 0 W/m² 3,2 km/h (1 Bft) 97,87 %
17.03.2026 06:50 7,7 °C 7,2 °C 3,3 °C 92 % 1020,9 hPa 0,0 l/m² 0 min 0 W/m² 9,7 km/h (2 Bft) 97,83 %
17.03.2026 06:52 7,7 °C 7,2 °C 3,3 °C 92 % 1020,9 hPa 0,0 l/m² 0 min 3 W/m² 6,4 km/h (2 Bft) 97,87 %
17.03.2026 06:54 7,7 °C 7,2 °C 3,3 °C 92 % 1020,9 hPa 0,0 l/m² 0 min 5 W/m² 3,2 km/h (1 Bft) 95,74 %
17.03.2026 06:56 7,7 °C 7,2 °C 3,3 °C 92 % 1020,8 hPa 0,0 l/m² 0 min 6 W/m² 3,2 km/h (1 Bft) 97,87 %
17.03.2026 06:58 7,7 °C 7,2 °C 3,3 °C 92 % 1020,8 hPa 0,0 l/m² 0 min 7 W/m² 3,2 km/h (1 Bft) 97,87 %
17.03.2026 07:00 7,7 °C 7,2 °C 3,3 °C 92 % 1020,8 hPa 0,0 l/m² 0 min 9 W/m² 3,2 km/h (1 Bft) 95,74 %
17.03.2026 07:02 7,7 °C 7,2 °C 3,3 °C 92 % 1020,8 hPa 0,0 l/m² 0 min 11 W/m² 6,4 km/h (2 Bft) 97,83 %
17.03.2026 07:04 7,7 °C 7,2 °C 3,3 °C 93 % 1020,9 hPa 0,0 l/m² 0 min 12 W/m² 6,4 km/h (2 Bft) 97,87 %
17.03.2026 07:06 7,7 °C 7,2 °C 3,3 °C 93 % 1020,9 hPa 0,0 l/m² 0 min 11 W/m² 6,4 km/h (2 Bft) 98,33 %
17.03.2026 07:08 7,7 °C 7,2 °C 3,3 °C 93 % 1021,0 hPa 0,0 l/m² 0 min 14 W/m² 6,4 km/h (2 Bft) 97,22 %
17.03.2026 07:10 7,7 °C 7,2 °C 3,3 °C 93 % 1021,0 hPa 0,0 l/m² 0 min 18 W/m² 6,4 km/h (2 Bft) 97,87 %
17.03.2026 07:12 7,7 °C 7,2 °C 3,3 °C 93 % 1021,0 hPa 0,0 l/m² 0 min 17 W/m² 12,9 km/h (3 Bft) 95,65 %
17.03.2026 07:14 7,7 °C 7,2 °C 3,3 °C 93 % 1021,0 hPa 0,0 l/m² 0 min 16 W/m² 12,9 km/h (3 Bft) 97,87 %
17.03.2026 07:16 7,7 °C 7,2 °C 3,3 °C 93 % 1021,1 hPa 0,0 l/m² 0 min 16 W/m² 12,9 km/h (3 Bft) 97,87 %
17.03.2026 07:18 7,7 °C 7,2 °C 3,3 °C 93 % 1021,1 hPa 0,0 l/m² 0 min 18 W/m² 3,2 km/h (1 Bft) 100,00 %
17.03.2026 07:20 7,7 °C 7,2 °C 3,3 °C 93 % 1021,1 hPa 0,0 l/m² 0 min 20 W/m² 9,7 km/h (2 Bft) 100,00 %
17.03.2026 07:22 7,7 °C 7,2 °C 3,3 °C 93 % 1021,1 hPa 0,0 l/m² 0 min 20 W/m² 12,9 km/h (3 Bft) 100,00 %
17.03.2026 07:24 7,7 °C 7,2 °C 3,3 °C 93 % 1021,2 hPa 0,0 l/m² 0 min 20 W/m² 3,2 km/h (1 Bft) 100,00 %
17.03.2026 07:26 7,7 °C 7,2 °C 3,3 °C 93 % 1021,1 hPa 0,0 l/m² 0 min 24 W/m² 9,7 km/h (2 Bft) 100,00 %
17.03.2026 07:28 7,7 °C 7,2 °C 3,3 °C 93 % 1021,1 hPa 0,0 l/m² 0 min 26 W/m² 3,2 km/h (1 Bft) 100,00 %
17.03.2026 07:30 7,7 °C 7,2 °C 3,3 °C 93 % 1021,1 hPa 0,0 l/m² 0 min 28 W/m² 6,4 km/h (2 Bft) 100,00 %
17.03.2026 07:32 7,8 °C 7,2 °C 3,3 °C 93 % 1021,1 hPa 0,0 l/m² 0 min 28 W/m² 12,9 km/h (3 Bft) 100,00 %
17.03.2026 07:34 7,8 °C 7,2 °C 3,3 °C 93 % 1021,1 hPa 0,0 l/m² 0 min 29 W/m² 12,9 km/h (3 Bft) 100,00 %
17.03.2026 07:36 7,8 °C 7,2 °C 3,3 °C 93 % 1021,1 hPa 0,0 l/m² 0 min 31 W/m² 9,7 km/h (2 Bft) 97,83 %
17.03.2026 07:38 7,8 °C 7,2 °C 3,3 °C 93 % 1021,1 hPa 0,0 l/m² 0 min 33 W/m² 12,9 km/h (3 Bft) 100,00 %
17.03.2026 07:40 7,8 °C 7,2 °C 3,3 °C 93 % 1021,1 hPa 0,0 l/m² 0 min 34 W/m² 9,7 km/h (2 Bft) 100,00 %
17.03.2026 07:42 7,8 °C 7,2 °C 3,3 °C 93 % 1021,1 hPa 0,0 l/m² 0 min 38 W/m² 12,9 km/h (3 Bft) 100,00 %
17.03.2026 07:44 7,8 °C 7,2 °C 3,3 °C 93 % 1021,1 hPa 0,0 l/m² 0 min 40 W/m² 12,9 km/h (3 Bft) 100,00 %
17.03.2026 07:46 7,8 °C 7,2 °C 3,3 °C 93 % 1021,2 hPa 0,0 l/m² 0 min 42 W/m² 6,4 km/h (2 Bft) 97,87 %
17.03.2026 07:48 7,8 °C 7,2 °C 3,9 °C 93 % 1021,2 hPa 0,0 l/m² 0 min 43 W/m² 12,9 km/h (3 Bft) 95,65 %
17.03.2026 07:50 7,8 °C 7,2 °C 3,9 °C 93 % 1021,2 hPa 0,0 l/m² 0 min 44 W/m² 6,4 km/h (2 Bft) 97,87 %
17.03.2026 07:52 7,8 °C 7,8 °C 3,9 °C 93 % 1021,3 hPa 0,0 l/m² 0 min 43 W/m² 6,4 km/h (2 Bft) 97,87 %
17.03.2026 07:54 7,8 °C 7,8 °C 3,9 °C 93 % 1021,3 hPa 0,0 l/m² 0 min 42 W/m² 6,4 km/h (2 Bft) 52,38 %
17.03.2026 07:56 7,9 °C 7,8 °C 3,9 °C 93 % 1021,3 hPa 0,0 l/m² 0 min 42 W/m² 6,4 km/h (2 Bft) 97,87 %
17.03.2026 07:58 7,9 °C 7,8 °C 3,9 °C 93 % 1021,3 hPa 0,0 l/m² 0 min 41 W/m² 6,4 km/h (2 Bft) 97,87 %
17.03.2026 08:00 7,9 °C 7,8 °C 3,9 °C 93 % 1021,3 hPa 0,0 l/m² 0 min 39 W/m² 6,4 km/h (2 Bft) 97,83 %
17.03.2026 08:02 7,9 °C 7,8 °C 3,9 °C 93 % 1021,3 hPa 0,0 l/m² 0 min 38 W/m² 6,4 km/h (2 Bft) 95,74 %
17.03.2026 08:04 7,9 °C 7,8 °C 3,9 °C 93 % 1021,3 hPa 0,0 l/m² 0 min 34 W/m² 6,4 km/h (2 Bft) 95,74 %
17.03.2026 08:06 7,9 °C 7,8 °C 3,9 °C 93 % 1021,4 hPa 0,0 l/m² 0 min 33 W/m² 6,4 km/h (2 Bft) 96,61 %
17.03.2026 08:08 8,0 °C 7,8 °C 3,9 °C 93 % 1021,4 hPa 0,0 l/m² 0 min 35 W/m² 6,4 km/h (2 Bft) 97,14 %
17.03.2026 08:10 8,0 °C 7,8 °C 3,9 °C 93 % 1021,4 hPa 0,0 l/m² 0 min 39 W/m² 9,7 km/h (2 Bft) 98,00 %
17.03.2026 08:12 8,0 °C 7,8 °C 3,9 °C 93 % 1021,4 hPa 0,0 l/m² 0 min 43 W/m² 6,4 km/h (2 Bft) 95,65 %
17.03.2026 08:14 8,0 °C 7,8 °C 3,9 °C 93 % 1021,3 hPa 0,0 l/m² 0 min 51 W/m² 3,2 km/h (1 Bft) 95,74 %
17.03.2026 08:16 8,1 °C 7,8 °C 3,9 °C 93 % 1021,4 hPa 0,0 l/m² 0 min 57 W/m² 9,7 km/h (2 Bft) 95,74 %
17.03.2026 08:18 8,1 °C 7,8 °C 3,9 °C 93 % 1021,4 hPa 0,0 l/m² 0 min 55 W/m² 6,4 km/h (2 Bft) 93,62 %
17.03.2026 08:20 8,1 °C 7,8 °C 3,9 °C 93 % 1021,4 hPa 0,0 l/m² 0 min 55 W/m² 6,4 km/h (2 Bft) 95,74 %
17.03.2026 08:22 8,1 °C 8,3 °C 4,4 °C 93 % 1021,4 hPa 0,0 l/m² 0 min 61 W/m² 12,9 km/h (3 Bft) 95,74 %
17.03.2026 08:24 8,1 °C 8,3 °C 4,4 °C 93 % 1021,4 hPa 0,0 l/m² 0 min 68 W/m² 6,4 km/h (2 Bft) 95,65 %
17.03.2026 08:26 8,2 °C 8,3 °C 4,4 °C 93 % 1021,4 hPa 0,0 l/m² 0 min 70 W/m² 6,4 km/h (2 Bft) 93,62 %
17.03.2026 08:28 8,2 °C 8,3 °C 4,4 °C 93 % 1021,5 hPa 0,0 l/m² 0 min 68 W/m² 6,4 km/h (2 Bft) 91,49 %
17.03.2026 08:30 8,2 °C 8,3 °C 4,4 °C 93 % 1021,5 hPa 0,0 l/m² 0 min 69 W/m² 6,4 km/h (2 Bft) 95,74 %
17.03.2026 08:32 8,2 °C 8,3 °C 4,4 °C 93 % 1021,5 hPa 0,0 l/m² 0 min 70 W/m² 3,2 km/h (1 Bft) 95,74 %
17.03.2026 08:34 8,3 °C 8,3 °C 4,4 °C 93 % 1021,6 hPa 0,0 l/m² 0 min 67 W/m² 9,7 km/h (2 Bft) 91,30 %
17.03.2026 08:36 8,3 °C 8,3 °C 4,4 °C 93 % 1021,5 hPa 0,0 l/m² 0 min 61 W/m² 9,7 km/h (2 Bft) 97,87 %
17.03.2026 08:38 8,3 °C 8,3 °C 4,4 °C 93 % 1021,6 hPa 0,0 l/m² 0 min 55 W/m² 6,4 km/h (2 Bft) 95,74 %
17.03.2026 08:40 8,3 °C 8,3 °C 4,4 °C 93 % 1021,6 hPa 0,0 l/m² 0 min 51 W/m² 6,4 km/h (2 Bft) 95,74 %
17.03.2026 08:42 8,4 °C 8,3 °C 4,4 °C 93 % 1021,6 hPa 0,0 l/m² 0 min 52 W/m² 12,9 km/h (3 Bft) 95,74 %
17.03.2026 08:44 8,4 °C 8,3 °C 4,4 °C 93 % 1021,5 hPa 0,0 l/m² 0 min 61 W/m² 12,9 km/h (3 Bft) 95,74 %
17.03.2026 08:46 8,4 °C 8,3 °C 4,4 °C 93 % 1021,5 hPa 0,0 l/m² 0 min 74 W/m² 12,9 km/h (3 Bft) 95,65 %
17.03.2026 08:48 8,4 °C 8,9 °C 4,4 °C 93 % 1021,6 hPa 0,0 l/m² 0 min 85 W/m² 6,4 km/h (2 Bft) 95,74 %
17.03.2026 08:50 8,5 °C 8,9 °C 4,4 °C 93 % 1021,6 hPa 0,0 l/m² 0 min 85 W/m² 16,1 km/h (3 Bft) 95,74 %
17.03.2026 08:52 8,6 °C 8,9 °C 5,0 °C 93 % 1021,6 hPa 0,0 l/m² 0 min 95 W/m² 12,9 km/h (3 Bft) 95,74 %
17.03.2026 08:54 8,6 °C 8,9 °C 5,0 °C 93 % 1021,6 hPa 0,0 l/m² 0 min 110 W/m² 12,9 km/h (3 Bft) 95,74 %
17.03.2026 08:56 8,6 °C 8,9 °C 5,0 °C 93 % 1021,6 hPa 0,0 l/m² 0 min 114 W/m² 6,4 km/h (2 Bft) 97,87 %
17.03.2026 08:58 8,7 °C 8,9 °C 5,0 °C 93 % 1021,6 hPa 0,0 l/m² 0 min 118 W/m² 16,1 km/h (3 Bft) 95,65 %
17.03.2026 09:00 8,7 °C 9,4 °C 5,0 °C 93 % 1021,6 hPa 0,0 l/m² 0 min 131 W/m² 9,7 km/h (2 Bft) 97,87 %
17.03.2026 09:02 8,8 °C 9,4 °C 5,0 °C 93 % 1021,6 hPa 0,0 l/m² 0 min 136 W/m² 12,9 km/h (3 Bft) 97,87 %
17.03.2026 09:04 8,8 °C 9,4 °C 5,0 °C 93 % 1021,6 hPa 0,0 l/m² 0 min 125 W/m² 12,9 km/h (3 Bft) 97,87 %
17.03.2026 09:06 8,8 °C 9,4 °C 5,0 °C 93 % 1021,6 hPa 0,0 l/m² 0 min 111 W/m² 12,9 km/h (3 Bft) 97,87 %
17.03.2026 09:08 8,9 °C 9,4 °C 5,6 °C 93 % 1021,7 hPa 0,0 l/m² 0 min 112 W/m² 12,9 km/h (3 Bft) 97,87 %
17.03.2026 09:10 9,0 °C 9,4 °C 5,6 °C 93 % 1021,7 hPa 0,0 l/m² 0 min 99 W/m² 16,1 km/h (3 Bft) 93,48 %
17.03.2026 09:12 9,0 °C 9,4 °C 5,0 °C 92 % 1021,7 hPa 0,0 l/m² 0 min 85 W/m² 12,9 km/h (3 Bft) 97,87 %
17.03.2026 09:14 9,1 °C 8,9 °C 5,0 °C 92 % 1021,7 hPa 0,0 l/m² 0 min 84 W/m² 12,9 km/h (3 Bft) 97,87 %
17.03.2026 09:16 9,1 °C 8,9 °C 5,0 °C 92 % 1021,7 hPa 0,0 l/m² 0 min 88 W/m² 12,9 km/h (3 Bft) 100,00 %
17.03.2026 09:18 9,1 °C 8,9 °C 5,0 °C 92 % 1021,7 hPa 0,0 l/m² 0 min 106 W/m² 9,7 km/h (2 Bft) 100,00 %
17.03.2026 09:20 9,2 °C 9,4 °C 5,0 °C 92 % 1021,7 hPa 0,0 l/m² 0 min 123 W/m² 16,1 km/h (3 Bft) 100,00 %
17.03.2026 09:22 9,2 °C 9,4 °C 5,0 °C 92 % 1021,7 hPa 0,0 l/m² 0 min 128 W/m² 16,1 km/h (3 Bft) 100,00 %
17.03.2026 09:24 9,3 °C 9,4 °C 5,0 °C 92 % 1021,7 hPa 0,0 l/m² 0 min 124 W/m² 12,9 km/h (3 Bft) 100,00 %
17.03.2026 09:26 9,3 °C 9,4 °C 5,0 °C 92 % 1021,7 hPa 0,0 l/m² 0 min 110 W/m² 9,7 km/h (2 Bft) 100,00 %
17.03.2026 09:28 9,3 °C 9,4 °C 5,0 °C 92 % 1021,7 hPa 0,0 l/m² 0 min 99 W/m² 12,9 km/h (3 Bft) 100,00 %
17.03.2026 09:30 9,3 °C 9,4 °C 5,0 °C 92 % 1021,7 hPa 0,0 l/m² 0 min 89 W/m² 12,9 km/h (3 Bft) 100,00 %
17.03.2026 09:32 9,3 °C 9,4 °C 5,0 °C 92 % 1021,7 hPa 0,0 l/m² 0 min 83 W/m² 12,9 km/h (3 Bft) 48,72 %
17.03.2026 09:34 9,3 °C 8,9 °C 5,0 °C 92 % 1021,8 hPa 0,0 l/m² 0 min 83 W/m² 12,9 km/h (3 Bft) 100,00 %
17.03.2026 09:36 9,3 °C 8,9 °C 5,0 °C 92 % 1021,8 hPa 0,0 l/m² 0 min 91 W/m² 22,5 km/h (4 Bft) 97,87 %
17.03.2026 09:38 9,3 °C 8,9 °C 5,0 °C 92 % 1021,7 hPa 0,0 l/m² 0 min 100 W/m² 22,5 km/h (4 Bft) 100,00 %
17.03.2026 09:40 9,4 °C 8,9 °C 5,0 °C 92 % 1021,7 hPa 0,0 l/m² 0 min 105 W/m² 19,3 km/h (3 Bft) 97,87 %
17.03.2026 09:42 9,4 °C 8,9 °C 5,0 °C 92 % 1021,7 hPa 0,0 l/m² 0 min 107 W/m² 16,1 km/h (3 Bft) 97,87 %
17.03.2026 09:44 9,4 °C 8,9 °C 5,0 °C 92 % 1021,7 hPa 0,0 l/m² 0 min 109 W/m² 12,9 km/h (3 Bft) 100,00 %
17.03.2026 09:46 9,4 °C 8,9 °C 5,0 °C 92 % 1021,7 hPa 0,0 l/m² 0 min 108 W/m² 12,9 km/h (3 Bft) 100,00 %
17.03.2026 09:48 9,4 °C 8,9 °C 5,0 °C 92 % 1021,7 hPa 0,0 l/m² 0 min 108 W/m² 9,7 km/h (2 Bft) 97,87 %
17.03.2026 09:50 9,4 °C 8,9 °C 5,0 °C 92 % 1021,7 hPa 0,0 l/m² 0 min 102 W/m² 12,9 km/h (3 Bft) 100,00 %
17.03.2026 09:52 9,4 °C 9,4 °C 5,0 °C 93 % 1021,7 hPa 0,0 l/m² 0 min 116 W/m² 6,4 km/h (2 Bft) 100,00 %
17.03.2026 09:54 9,4 °C 9,4 °C 5,0 °C 93 % 1021,7 hPa 0,0 l/m² 0 min 123 W/m² 9,7 km/h (2 Bft) 97,87 %
17.03.2026 09:56 9,4 °C 9,4 °C 5,0 °C 93 % 1021,7 hPa 0,0 l/m² 0 min 120 W/m² 9,7 km/h (2 Bft) 100,00 %
17.03.2026 09:58 9,4 °C 9,4 °C 5,6 °C 93 % 1021,7 hPa 0,0 l/m² 0 min 120 W/m² 9,7 km/h (2 Bft) 100,00 %
17.03.2026 10:00 9,4 °C 9,4 °C 5,6 °C 93 % 1021,7 hPa 0,0 l/m² 0 min 125 W/m² 9,7 km/h (2 Bft) 100,00 %
17.03.2026 10:02 9,4 °C 9,4 °C 5,6 °C 93 % 1021,7 hPa 0,0 l/m² 0 min 119 W/m² 12,9 km/h (3 Bft) 97,87 %
17.03.2026 10:04 9,4 °C 9,4 °C 5,6 °C 93 % 1021,7 hPa 0,0 l/m² 0 min 125 W/m² 19,3 km/h (3 Bft) 100,00 %
17.03.2026 10:06 9,4 °C 9,4 °C 5,6 °C 93 % 1021,7 hPa 0,0 l/m² 0 min 140 W/m² 16,1 km/h (3 Bft) 100,00 %
17.03.2026 10:08 9,5 °C 9,4 °C 5,6 °C 93 % 1021,7 hPa 0,0 l/m² 0 min 130 W/m² 9,7 km/h (2 Bft) 97,83 %
17.03.2026 10:10 9,5 °C 9,4 °C 5,6 °C 93 % 1021,7 hPa 0,0 l/m² 0 min 115 W/m² 12,9 km/h (3 Bft) 97,87 %
17.03.2026 10:12 9,5 °C 9,4 °C 5,6 °C 93 % 1021,7 hPa 0,0 l/m² 0 min 107 W/m² 16,1 km/h (3 Bft) 100,00 %
17.03.2026 10:14 9,5 °C 9,4 °C 5,6 °C 93 % 1021,7 hPa 0,0 l/m² 0 min 109 W/m² 9,7 km/h (2 Bft) 100,00 %
17.03.2026 10:16 9,5 °C 9,4 °C 5,6 °C 93 % 1021,7 hPa 0,0 l/m² 0 min 111 W/m² 9,7 km/h (2 Bft) 100,00 %
17.03.2026 10:18 9,6 °C 9,4 °C 5,6 °C 93 % 1021,8 hPa 0,0 l/m² 0 min 114 W/m² 19,3 km/h (3 Bft) 100,00 %
17.03.2026 10:20 9,6 °C 9,4 °C 5,6 °C 93 % 1021,8 hPa 0,0 l/m² 0 min 106 W/m² 12,9 km/h (3 Bft) 100,00 %
17.03.2026 10:22 9,6 °C 9,4 °C 5,6 °C 93 % 1021,8 hPa 0,0 l/m² 0 min 98 W/m² 12,9 km/h (3 Bft) 100,00 %
17.03.2026 10:24 9,6 °C 9,4 °C 5,6 °C 93 % 1021,8 hPa 0,0 l/m² 0 min 109 W/m² 9,7 km/h (2 Bft) 100,00 %
17.03.2026 10:26 9,6 °C 9,4 °C 5,6 °C 93 % 1021,8 hPa 0,0 l/m² 0 min 100 W/m² 9,7 km/h (2 Bft) 100,00 %
17.03.2026 10:28 9,6 °C 9,4 °C 5,6 °C 93 % 1021,8 hPa 0,0 l/m² 0 min 108 W/m² 9,7 km/h (2 Bft) 100,00 %
17.03.2026 10:30 9,6 °C 9,4 °C 5,6 °C 93 % 1021,8 hPa 0,0 l/m² 0 min 118 W/m² 12,9 km/h (3 Bft) 97,87 %
17.03.2026 10:32 9,6 °C 9,4 °C 5,6 °C 93 % 1021,8 hPa 0,0 l/m² 0 min 107 W/m² 12,9 km/h (3 Bft) 95,65 %
17.03.2026 10:34 9,7 °C 10,0 °C 5,6 °C 93 % 1021,8 hPa 0,0 l/m² 0 min 108 W/m² 12,9 km/h (3 Bft) 97,87 %
17.03.2026 10:36 9,7 °C 9,4 °C 5,6 °C 93 % 1021,8 hPa 0,0 l/m² 0 min 119 W/m² 12,9 km/h (3 Bft) 97,87 %
17.03.2026 10:38 9,7 °C 9,4 °C 5,6 °C 93 % 1021,9 hPa 0,0 l/m² 0 min 110 W/m² 16,1 km/h (3 Bft) 95,74 %
17.03.2026 10:40 9,7 °C 9,4 °C 5,6 °C 93 % 1021,8 hPa 0,0 l/m² 0 min 106 W/m² 19,3 km/h (3 Bft) 95,74 %
17.03.2026 10:42 9,7 °C 9,4 °C 5,6 °C 93 % 1021,8 hPa 0,0 l/m² 0 min 105 W/m² 9,7 km/h (2 Bft) 95,74 %
17.03.2026 10:44 9,7 °C 10,0 °C 5,6 °C 93 % 1021,8 hPa 0,0 l/m² 0 min 125 W/m² 9,7 km/h (2 Bft) 93,48 %
17.03.2026 10:46 9,7 °C 10,0 °C 5,6 °C 93 % 1021,7 hPa 0,0 l/m² 0 min 127 W/m² 9,7 km/h (2 Bft) 95,74 %
17.03.2026 10:48 9,8 °C 10,0 °C 6,1 °C 93 % 1021,7 hPa 0,0 l/m² 0 min 139 W/m² 9,7 km/h (2 Bft) 93,62 %
17.03.2026 10:50 9,8 °C 10,0 °C 6,1 °C 93 % 1021,7 hPa 0,0 l/m² 0 min 150 W/m² 12,9 km/h (3 Bft) 95,74 %
17.03.2026 10:52 9,8 °C 10,0 °C 6,1 °C 93 % 1021,6 hPa 0,0 l/m² 0 min 151 W/m² 9,7 km/h (2 Bft) 95,74 %
17.03.2026 10:54 9,8 °C 10,0 °C 6,1 °C 93 % 1021,7 hPa 0,0 l/m² 0 min 150 W/m² 12,9 km/h (3 Bft) 93,48 %
17.03.2026 10:56 9,9 °C 10,6 °C 6,1 °C 93 % 1021,7 hPa 0,0 l/m² 0 min 133 W/m² 12,9 km/h (3 Bft) 95,74 %
17.03.2026 10:58 9,9 °C 10,6 °C 6,1 °C 93 % 1021,8 hPa 0,0 l/m² 0 min 120 W/m² 6,4 km/h (2 Bft) 91,49 %
17.03.2026 11:00 9,9 °C 10,6 °C 6,1 °C 93 % 1021,7 hPa 0,0 l/m² 0 min 121 W/m² 6,4 km/h (2 Bft) 95,74 %
17.03.2026 11:02 10,0 °C 10,6 °C 6,1 °C 93 % 1021,7 hPa 0,0 l/m² 0 min 120 W/m² 9,7 km/h (2 Bft) 95,74 %
17.03.2026 11:04 10,1 °C 10,6 °C 6,1 °C 93 % 1021,7 hPa 0,0 l/m² 0 min 117 W/m² 9,7 km/h (2 Bft) 95,24 %
17.03.2026 11:06 10,1 °C 10,0 °C 6,1 °C 93 % 1021,8 hPa 0,0 l/m² 0 min 111 W/m² 9,7 km/h (2 Bft) 95,74 %
17.03.2026 11:08 10,1 °C 10,0 °C 6,1 °C 93 % 1021,8 hPa 0,0 l/m² 0 min 112 W/m² 9,7 km/h (2 Bft) 93,48 %
17.03.2026 11:10 10,1 °C 10,0 °C 6,1 °C 93 % 1021,8 hPa 0,0 l/m² 0 min 124 W/m² 9,7 km/h (2 Bft) 93,62 %
17.03.2026 11:12 10,1 °C 10,6 °C 6,1 °C 93 % 1021,8 hPa 0,0 l/m² 0 min 137 W/m² 6,4 km/h (2 Bft) 91,49 %
17.03.2026 11:14 10,1 °C 10,6 °C 6,1 °C 93 % 1021,7 hPa 0,0 l/m² 0 min 159 W/m² 9,7 km/h (2 Bft) 95,74 %
17.03.2026 11:16 10,1 °C 10,6 °C 6,1 °C 93 % 1021,8 hPa 0,0 l/m² 0 min 144 W/m² 9,7 km/h (2 Bft) 93,75 %
17.03.2026 11:18 10,2 °C 10,6 °C 6,7 °C 93 % 1021,8 hPa 0,0 l/m² 0 min 137 W/m² 12,9 km/h (3 Bft) 93,62 %
17.03.2026 11:20 10,2 °C 10,6 °C 6,7 °C 93 % 1021,8 hPa 0,0 l/m² 0 min 142 W/m² 9,7 km/h (2 Bft) 95,65 %
17.03.2026 11:22 10,2 °C 10,6 °C 6,7 °C 93 % 1021,7 hPa 0,0 l/m² 0 min 155 W/m² 9,7 km/h (2 Bft) 95,74 %
17.03.2026 11:24 10,3 °C 11,1 °C 6,7 °C 93 % 1021,7 hPa 0,0 l/m² 0 min 170 W/m² 6,4 km/h (2 Bft) 95,74 %
17.03.2026 11:26 10,3 °C 11,1 °C 6,7 °C 93 % 1021,7 hPa 0,0 l/m² 0 min 159 W/m² 6,4 km/h (2 Bft) 95,74 %
17.03.2026 11:28 10,4 °C 11,1 °C 6,7 °C 93 % 1021,7 hPa 0,0 l/m² 0 min 143 W/m² 9,7 km/h (2 Bft) 95,74 %
17.03.2026 11:30 10,4 °C 11,1 °C 6,7 °C 93 % 1021,7 hPa 0,0 l/m² 0 min 128 W/m² 16,1 km/h (3 Bft) 97,87 %
17.03.2026 11:32 10,4 °C 11,1 °C 6,7 °C 93 % 1021,8 hPa 0,0 l/m² 0 min 116 W/m² 9,7 km/h (2 Bft) 97,83 %
17.03.2026 11:34 10,5 °C 11,1 °C 6,7 °C 92 % 1021,7 hPa 0,0 l/m² 0 min 106 W/m² 6,4 km/h (2 Bft) 97,87 %
17.03.2026 11:36 10,6 °C 11,1 °C 6,7 °C 92 % 1021,7 hPa 0,0 l/m² 0 min 100 W/m² 6,4 km/h (2 Bft) 97,87 %
17.03.2026 11:38 10,6 °C 11,1 °C 6,7 °C 92 % 1021,7 hPa 0,0 l/m² 0 min 96 W/m² 6,4 km/h (2 Bft) 97,87 %
17.03.2026 11:40 10,6 °C 11,1 °C 6,7 °C 92 % 1021,7 hPa 0,0 l/m² 0 min 121 W/m² 6,4 km/h (2 Bft) 97,87 %
17.03.2026 11:42 10,7 °C 11,1 °C 6,7 °C 92 % 1021,7 hPa 0,0 l/m² 0 min 146 W/m² 9,7 km/h (2 Bft) 97,87 %
17.03.2026 11:44 10,7 °C 11,1 °C 6,7 °C 92 % 1021,7 hPa 0,0 l/m² 0 min 131 W/m² 6,4 km/h (2 Bft) 95,65 %
17.03.2026 11:46 10,7 °C 11,1 °C 6,7 °C 92 % 1021,7 hPa 0,0 l/m² 0 min 122 W/m² 6,4 km/h (2 Bft) 93,62 %
17.03.2026 11:48 10,7 °C 11,1 °C 6,7 °C 91 % 1021,7 hPa 0,0 l/m² 0 min 120 W/m² 12,9 km/h (3 Bft) 95,74 %
17.03.2026 11:50 10,8 °C 11,1 °C 6,7 °C 91 % 1021,6 hPa 0,0 l/m² 0 min 127 W/m² 6,4 km/h (2 Bft) 97,87 %
17.03.2026 11:52 10,8 °C 11,1 °C 6,7 °C 91 % 1021,7 hPa 0,0 l/m² 0 min 136 W/m² 6,4 km/h (2 Bft) 95,74 %
17.03.2026 11:54 10,8 °C 11,1 °C 7,2 °C 91 % 1021,6 hPa 0,0 l/m² 0 min 142 W/m² 3,2 km/h (1 Bft) 91,30 %
17.03.2026 11:56 10,9 °C 11,1 °C 7,2 °C 91 % 1021,7 hPa 0,0 l/m² 0 min 134 W/m² 6,4 km/h (2 Bft) 97,87 %
17.03.2026 11:58 10,9 °C 11,1 °C 7,2 °C 91 % 1021,6 hPa 0,0 l/m² 0 min 127 W/m² 9,7 km/h (2 Bft) 97,87 %
17.03.2026 12:00 10,9 °C 11,1 °C 7,2 °C 91 % 1021,6 hPa 0,0 l/m² 0 min 123 W/m² 12,9 km/h (3 Bft) 100,00 %
17.03.2026 12:02 11,0 °C 11,1 °C 7,2 °C 90 % 1021,6 hPa 0,0 l/m² 0 min 105 W/m² 12,9 km/h (3 Bft) 100,00 %
17.03.2026 12:04 11,0 °C 11,1 °C 7,2 °C 90 % 1021,6 hPa 0,0 l/m² 0 min 93 W/m² 9,7 km/h (2 Bft) 100,00 %
17.03.2026 12:07 11,1 °C 11,1 °C 7,2 °C 90 % 1021,6 hPa 0,0 l/m² 0 min 102 W/m² 6,4 km/h (2 Bft) 98,57 %
17.03.2026 12:08 11,1 °C 11,1 °C 7,2 °C 90 % 1021,6 hPa 0,0 l/m² 0 min 112 W/m² 6,4 km/h (2 Bft) 100,00 %
17.03.2026 12:12 11,1 °C 11,1 °C 7,2 °C 90 % 1021,6 hPa 0,0 l/m² 0 min 132 W/m² 9,7 km/h (2 Bft) 98,28 %
17.03.2026 12:14 11,2 °C 11,1 °C 7,2 °C 89 % 1021,6 hPa 0,0 l/m² 0 min 115 W/m² 9,7 km/h (2 Bft) 100,00 %
17.03.2026 12:16 11,2 °C 11,1 °C 7,2 °C 89 % 1021,7 hPa 0,0 l/m² 0 min 109 W/m² 16,1 km/h (3 Bft) 100,00 %
17.03.2026 12:18 11,2 °C 11,7 °C 7,2 °C 89 % 1021,7 hPa 0,0 l/m² 0 min 107 W/m² 12,9 km/h (3 Bft) 97,83 %
17.03.2026 12:20 11,2 °C 11,7 °C 7,2 °C 89 % 1021,6 hPa 0,0 l/m² 0 min 118 W/m² 9,7 km/h (2 Bft) 100,00 %
17.03.2026 12:22 11,3 °C 11,7 °C 7,2 °C 89 % 1021,6 hPa 0,0 l/m² 0 min 156 W/m² 6,4 km/h (2 Bft) 97,87 %
17.03.2026 12:24 11,3 °C 11,7 °C 7,2 °C 89 % 1021,6 hPa 0,0 l/m² 0 min 177 W/m² 12,9 km/h (3 Bft) 100,00 %
17.03.2026 12:26 11,3 °C 11,7 °C 7,2 °C 89 % 1021,6 hPa 0,0 l/m² 0 min 196 W/m² 12,9 km/h (3 Bft) 97,87 %
17.03.2026 12:28 11,3 °C 12,2 °C 7,8 °C 88 % 1021,7 hPa 0,0 l/m² 0 min 207 W/m² 12,9 km/h (3 Bft) 100,00 %
17.03.2026 12:30 11,4 °C 12,2 °C 7,8 °C 88 % 1021,6 hPa 0,0 l/m² 0 min 184 W/m² 9,7 km/h (2 Bft) 100,00 %
17.03.2026 12:32 11,4 °C 12,2 °C 7,8 °C 88 % 1021,6 hPa 0,0 l/m² 0 min 172 W/m² 12,9 km/h (3 Bft) 100,00 %
17.03.2026 12:34 11,5 °C 12,2 °C 7,8 °C 88 % 1021,6 hPa 0,0 l/m² 0 min 176 W/m² 6,4 km/h (2 Bft) 95,74 %
17.03.2026 12:36 11,6 °C 12,2 °C 7,8 °C 88 % 1021,6 hPa 0,0 l/m² 0 min 186 W/m² 12,9 km/h (3 Bft) 100,00 %
17.03.2026 12:38 11,6 °C 12,2 °C 7,8 °C 88 % 1021,7 hPa 0,0 l/m² 0 min 198 W/m² 16,1 km/h (3 Bft) 100,00 %
17.03.2026 12:40 11,6 °C 12,2 °C 7,8 °C 88 % 1021,7 hPa 0,0 l/m² 0 min 200 W/m² 16,1 km/h (3 Bft) 100,00 %
17.03.2026 12:42 11,7 °C 12,8 °C 7,8 °C 87 % 1021,7 hPa 0,0 l/m² 0 min 216 W/m² 12,9 km/h (3 Bft) 100,00 %
17.03.2026 12:44 11,7 °C 12,8 °C 7,8 °C 87 % 1021,6 hPa 0,0 l/m² 0 min 235 W/m² 3,2 km/h (1 Bft) 95,83 %
17.03.2026 12:46 11,8 °C 12,8 °C 8,3 °C 87 % 1021,6 hPa 0,0 l/m² 0 min 257 W/m² 6,4 km/h (2 Bft) 97,87 %
17.03.2026 12:48 11,8 °C 13,3 °C 8,3 °C 87 % 1021,7 hPa 0,0 l/m² 0 min 282 W/m² 6,4 km/h (2 Bft) 100,00 %
17.03.2026 12:50 11,9 °C 13,3 °C 8,3 °C 87 % 1021,7 hPa 0,0 l/m² 0 min 269 W/m² 9,7 km/h (2 Bft) 95,74 %
17.03.2026 12:52 11,9 °C 13,3 °C 8,3 °C 87 % 1021,7 hPa 0,0 l/m² 0 min 247 W/m² 12,9 km/h (3 Bft) 97,87 %
17.03.2026 12:54 12,0 °C 13,3 °C 8,3 °C 86 % 1021,7 hPa 0,0 l/m² 0 min 229 W/m² 9,7 km/h (2 Bft) 95,65 %
17.03.2026 12:56 12,1 °C 13,3 °C 8,3 °C 86 % 1021,7 hPa 0,0 l/m² 0 min 227 W/m² 12,9 km/h (3 Bft) 97,87 %
17.03.2026 12:58 12,1 °C 12,8 °C 8,3 °C 86 % 1021,6 hPa 0,0 l/m² 0 min 211 W/m² 9,7 km/h (2 Bft) 97,87 %
17.03.2026 13:00 12,1 °C 12,8 °C 8,3 °C 86 % 1021,6 hPa 0,0 l/m² 0 min 193 W/m² 9,7 km/h (2 Bft) 97,67 %
17.03.2026 13:02 12,2 °C 12,8 °C 8,3 °C 85 % 1021,6 hPa 0,0 l/m² 0 min 198 W/m² 12,9 km/h (3 Bft) 90,00 %
17.03.2026 13:04 12,2 °C 12,8 °C 8,3 °C 85 % 1021,6 hPa 0,0 l/m² 0 min 214 W/m² 16,1 km/h (3 Bft) 95,74 %
17.03.2026 13:06 12,2 °C 12,8 °C 8,3 °C 85 % 1021,6 hPa 0,0 l/m² 0 min 236 W/m² 12,9 km/h (3 Bft) 95,65 %
17.03.2026 13:08 12,3 °C 13,3 °C 8,3 °C 85 % 1021,6 hPa 0,0 l/m² 0 min 248 W/m² 12,9 km/h (3 Bft) 95,83 %
17.03.2026 13:10 12,3 °C 13,3 °C 8,3 °C 85 % 1021,6 hPa 0,0 l/m² 0 min 253 W/m² 9,7 km/h (2 Bft) 95,74 %
17.03.2026 13:12 12,3 °C 13,3 °C 8,3 °C 85 % 1021,5 hPa 0,0 l/m² 0 min 271 W/m² 9,7 km/h (2 Bft) 95,74 %
17.03.2026 13:14 12,4 °C 13,9 °C 8,9 °C 84 % 1021,5 hPa 0,0 l/m² 2 min 298 W/m² 12,9 km/h (3 Bft) 91,67 %
17.03.2026 13:16 12,4 °C 13,9 °C 8,9 °C 84 % 1021,6 hPa 0,0 l/m² 0 min 294 W/m² 6,4 km/h (2 Bft) 95,65 %
17.03.2026 13:18 12,5 °C 13,9 °C 8,9 °C 84 % 1021,5 hPa 0,0 l/m² 0 min 275 W/m² 6,4 km/h (2 Bft) 95,74 %
17.03.2026 13:20 12,6 °C 13,9 °C 8,9 °C 84 % 1021,6 hPa 0,0 l/m² 0 min 252 W/m² 12,9 km/h (3 Bft) 95,74 %
17.03.2026 13:22 12,6 °C 13,9 °C 8,9 °C 84 % 1021,5 hPa 0,0 l/m² 0 min 255 W/m² 12,9 km/h (3 Bft) 95,74 %
17.03.2026 13:24 12,7 °C 13,9 °C 8,9 °C 84 % 1021,5 hPa 0,0 l/m² 0 min 281 W/m² 9,7 km/h (2 Bft) 95,74 %
17.03.2026 13:26 12,7 °C 13,9 °C 8,9 °C 84 % 1021,4 hPa 0,0 l/m² 0 min 292 W/m² 9,7 km/h (2 Bft) 95,74 %
17.03.2026 13:28 12,8 °C 14,4 °C 8,9 °C 84 % 1021,4 hPa 0,0 l/m² 0 min 293 W/m² 9,7 km/h (2 Bft) 97,83 %
17.03.2026 13:30 12,8 °C 13,9 °C 9,4 °C 84 % 1021,4 hPa 0,0 l/m² 0 min 282 W/m² 9,7 km/h (2 Bft) 97,87 %
17.03.2026 13:32 12,9 °C 13,9 °C 8,9 °C 83 % 1021,4 hPa 0,0 l/m² 0 min 256 W/m² 12,9 km/h (3 Bft) 95,74 %
17.03.2026 13:34 12,9 °C 13,9 °C 8,9 °C 83 % 1021,3 hPa 0,0 l/m² 0 min 229 W/m² 12,9 km/h (3 Bft) 97,87 %
17.03.2026 13:36 12,9 °C 13,3 °C 8,9 °C 83 % 1021,3 hPa 0,0 l/m² 0 min 196 W/m² 12,9 km/h (3 Bft) 97,87 %
17.03.2026 13:38 12,9 °C 13,3 °C 8,9 °C 83 % 1021,3 hPa 0,0 l/m² 0 min 178 W/m² 6,4 km/h (2 Bft) 97,87 %
17.03.2026 13:40 12,9 °C 13,3 °C 8,9 °C 83 % 1021,3 hPa 0,0 l/m² 0 min 176 W/m² 6,4 km/h (2 Bft) 97,83 %
17.03.2026 13:42 12,9 °C 13,3 °C 8,9 °C 83 % 1021,3 hPa 0,0 l/m² 0 min 174 W/m² 12,9 km/h (3 Bft) 97,87 %
17.03.2026 13:44 12,9 °C 12,8 °C 8,9 °C 83 % 1021,2 hPa 0,0 l/m² 0 min 183 W/m² 6,4 km/h (2 Bft) 97,87 %
17.03.2026 13:46 12,9 °C 12,8 °C 8,3 °C 83 % 1021,3 hPa 0,0 l/m² 0 min 163 W/m² 16,1 km/h (3 Bft) 100,00 %
17.03.2026 13:48 12,9 °C 12,8 °C 8,3 °C 83 % 1021,2 hPa 0,0 l/m² 0 min 149 W/m² 16,1 km/h (3 Bft) 97,87 %
17.03.2026 13:50 12,9 °C 12,8 °C 8,3 °C 83 % 1021,2 hPa 0,0 l/m² 0 min 140 W/m² 12,9 km/h (3 Bft) 100,00 %
17.03.2026 13:52 12,9 °C 12,2 °C 8,3 °C 83 % 1021,2 hPa 0,0 l/m² 0 min 127 W/m² 16,1 km/h (3 Bft) 100,00 %
17.03.2026 13:54 12,9 °C 12,2 °C 8,3 °C 83 % 1021,2 hPa 0,0 l/m² 0 min 119 W/m² 12,9 km/h (3 Bft) 100,00 %
17.03.2026 13:56 12,8 °C 12,2 °C 8,3 °C 83 % 1021,2 hPa 0,0 l/m² 0 min 118 W/m² 16,1 km/h (3 Bft) 100,00 %
17.03.2026 13:58 12,8 °C 12,2 °C 8,3 °C 83 % 1021,2 hPa 0,0 l/m² 0 min 120 W/m² 12,9 km/h (3 Bft) 97,87 %
17.03.2026 14:00 12,8 °C 12,2 °C 8,3 °C 83 % 1021,2 hPa 0,0 l/m² 0 min 116 W/m² 12,9 km/h (3 Bft) 97,87 %
17.03.2026 14:02 12,7 °C 12,2 °C 8,3 °C 84 % 1021,2 hPa 0,0 l/m² 0 min 109 W/m² 16,1 km/h (3 Bft) 97,87 %
17.03.2026 14:04 12,7 °C 12,2 °C 7,8 °C 84 % 1021,2 hPa 0,0 l/m² 0 min 118 W/m² 12,9 km/h (3 Bft) 97,92 %
17.03.2026 14:06 12,6 °C 12,2 °C 7,8 °C 84 % 1021,2 hPa 0,0 l/m² 0 min 107 W/m² 12,9 km/h (3 Bft) 97,87 %
17.03.2026 14:08 12,6 °C 11,7 °C 7,8 °C 84 % 1021,1 hPa 0,0 l/m² 0 min 93 W/m² 16,1 km/h (3 Bft) 100,00 %
17.03.2026 14:10 12,6 °C 11,7 °C 7,8 °C 84 % 1021,1 hPa 0,0 l/m² 0 min 95 W/m² 12,9 km/h (3 Bft) 100,00 %
17.03.2026 14:12 12,5 °C 11,7 °C 7,8 °C 84 % 1021,1 hPa 0,0 l/m² 0 min 101 W/m² 12,9 km/h (3 Bft) 97,87 %
17.03.2026 14:14 12,5 °C 11,7 °C 7,8 °C 85 % 1021,2 hPa 0,0 l/m² 0 min 102 W/m² 6,4 km/h (2 Bft) 100,00 %
17.03.2026 14:16 12,4 °C 11,7 °C 7,8 °C 85 % 1021,1 hPa 0,0 l/m² 0 min 100 W/m² 16,1 km/h (3 Bft) 100,00 %
17.03.2026 14:18 12,4 °C 11,7 °C 7,8 °C 85 % 1021,1 hPa 0,0 l/m² 0 min 98 W/m² 16,1 km/h (3 Bft) 100,00 %
17.03.2026 14:20 12,4 °C 11,7 °C 7,8 °C 85 % 1021,1 hPa 0,0 l/m² 0 min 95 W/m² 12,9 km/h (3 Bft) 100,00 %
17.03.2026 14:22 12,3 °C 11,7 °C 7,8 °C 85 % 1021,1 hPa 0,0 l/m² 0 min 90 W/m² 6,4 km/h (2 Bft) 97,14 %
17.03.2026 14:24 12,3 °C 11,7 °C 7,8 °C 85 % 1021,0 hPa 0,0 l/m² 0 min 89 W/m² 6,4 km/h (2 Bft) 98,18 %
17.03.2026 14:26 12,3 °C 12,2 °C 7,8 °C 85 % 1021,0 hPa 0,0 l/m² 0 min 94 W/m² 12,9 km/h (3 Bft) 98,00 %
17.03.2026 14:28 12,3 °C 12,2 °C 7,8 °C 85 % 1021,1 hPa 0,0 l/m² 0 min 97 W/m² 16,1 km/h (3 Bft) 97,87 %
17.03.2026 14:30 12,3 °C 11,7 °C 7,8 °C 85 % 1021,1 hPa 0,0 l/m² 0 min 97 W/m² 19,3 km/h (3 Bft) 97,87 %
17.03.2026 14:32 12,3 °C 11,7 °C 7,8 °C 86 % 1021,1 hPa 0,0 l/m² 0 min 106 W/m² 12,9 km/h (3 Bft) 97,14 %
17.03.2026 14:34 12,3 °C 11,7 °C 7,8 °C 86 % 1021,0 hPa 0,0 l/m² 0 min 115 W/m² 12,9 km/h (3 Bft) 96,36 %
17.03.2026 14:36 12,3 °C 12,2 °C 7,8 °C 86 % 1021,1 hPa 0,0 l/m² 0 min 122 W/m² 19,3 km/h (3 Bft) 95,74 %
17.03.2026 14:38 12,3 °C 12,2 °C 7,8 °C 86 % 1021,1 hPa 0,0 l/m² 0 min 112 W/m² 12,9 km/h (3 Bft) 93,62 %
17.03.2026 14:40 12,3 °C 12,2 °C 7,8 °C 86 % 1021,1 hPa 0,0 l/m² 0 min 104 W/m² 12,9 km/h (3 Bft) 97,96 %
17.03.2026 14:42 12,3 °C 12,2 °C 7,8 °C 86 % 1021,1 hPa 0,0 l/m² 0 min 104 W/m² 16,1 km/h (3 Bft) 95,83 %
17.03.2026 14:44 12,3 °C 12,2 °C 7,8 °C 86 % 1021,1 hPa 0,0 l/m² 0 min 101 W/m² 12,9 km/h (3 Bft) 97,87 %
17.03.2026 14:46 12,3 °C 11,7 °C 7,8 °C 86 % 1021,1 hPa 0,0 l/m² 0 min 107 W/m² 16,1 km/h (3 Bft) 94,29 %
17.03.2026 14:48 12,3 °C 12,2 °C 7,8 °C 86 % 1021,1 hPa 0,0 l/m² 0 min 119 W/m² 6,4 km/h (2 Bft) 98,18 %
17.03.2026 14:50 12,2 °C 12,2 °C 7,8 °C 86 % 1021,0 hPa 0,0 l/m² 0 min 123 W/m² 16,1 km/h (3 Bft) 97,87 %
17.03.2026 14:52 12,3 °C 12,2 °C 7,8 °C 86 % 1021,0 hPa 0,0 l/m² 0 min 124 W/m² 6,4 km/h (2 Bft) 95,92 %
17.03.2026 14:54 12,3 °C 12,2 °C 7,8 °C 86 % 1021,0 hPa 0,0 l/m² 0 min 112 W/m² 16,1 km/h (3 Bft) 95,83 %
17.03.2026 14:56 12,3 °C 12,2 °C 7,8 °C 86 % 1021,0 hPa 0,0 l/m² 0 min 103 W/m² 19,3 km/h (3 Bft) 95,74 %
17.03.2026 14:58 12,2 °C 11,7 °C 7,8 °C 86 % 1020,9 hPa 0,0 l/m² 0 min 100 W/m² 19,3 km/h (3 Bft) 94,29 %
17.03.2026 15:00 12,2 °C 12,2 °C 7,8 °C 86 % 1020,9 hPa 0,0 l/m² 0 min 99 W/m² 12,9 km/h (3 Bft) 95,74 %
17.03.2026 15:02 12,3 °C 12,2 °C 7,8 °C 86 % 1020,9 hPa 0,0 l/m² 0 min 100 W/m² 16,1 km/h (3 Bft) 96,36 %
17.03.2026 15:04 12,3 °C 12,2 °C 7,8 °C 86 % 1021,0 hPa 0,0 l/m² 0 min 100 W/m² 12,9 km/h (3 Bft) 95,92 %
17.03.2026 15:06 12,3 °C 12,2 °C 7,8 °C 86 % 1020,9 hPa 0,0 l/m² 0 min 101 W/m² 12,9 km/h (3 Bft) 91,84 %
17.03.2026 15:08 12,2 °C 12,2 °C 7,8 °C 86 % 1020,9 hPa 0,0 l/m² 0 min 100 W/m² 12,9 km/h (3 Bft) 100,00 %
17.03.2026 15:10 12,3 °C 12,2 °C 7,8 °C 86 % 1020,9 hPa 0,0 l/m² 0 min 99 W/m² 12,9 km/h (3 Bft) 100,00 %
17.03.2026 15:12 12,3 °C 12,2 °C 7,8 °C 85 % 1020,9 hPa 0,0 l/m² 0 min 94 W/m² 16,1 km/h (3 Bft) 96,30 %
17.03.2026 15:14 12,3 °C 12,2 °C 7,8 °C 85 % 1020,9 hPa 0,0 l/m² 0 min 86 W/m² 12,9 km/h (3 Bft) 97,96 %
17.03.2026 15:16 12,3 °C 12,2 °C 7,8 °C 85 % 1020,9 hPa 0,0 l/m² 0 min 84 W/m² 16,1 km/h (3 Bft) 97,96 %
17.03.2026 15:18 12,3 °C 12,2 °C 7,8 °C 85 % 1020,9 hPa 0,0 l/m² 0 min 86 W/m² 12,9 km/h (3 Bft) 97,14 %
17.03.2026 15:20 12,3 °C 12,2 °C 7,8 °C 85 % 1020,9 hPa 0,0 l/m² 0 min 92 W/m² 12,9 km/h (3 Bft) 98,15 %
17.03.2026 15:22 12,3 °C 12,2 °C 7,8 °C 85 % 1020,8 hPa 0,0 l/m² 0 min 101 W/m² 16,1 km/h (3 Bft) 97,87 %
17.03.2026 15:24 12,3 °C 12,2 °C 7,8 °C 85 % 1020,8 hPa 0,0 l/m² 0 min 116 W/m² 9,7 km/h (2 Bft) 97,87 %
17.03.2026 15:26 12,3 °C 12,2 °C 8,3 °C 85 % 1020,8 hPa 0,0 l/m² 0 min 125 W/m² 12,9 km/h (3 Bft) 97,96 %
17.03.2026 15:28 12,3 °C 12,2 °C 8,3 °C 85 % 1020,8 hPa 0,0 l/m² 0 min 130 W/m² 12,9 km/h (3 Bft) 97,96 %
17.03.2026 15:30 12,3 °C 12,2 °C 8,3 °C 85 % 1020,8 hPa 0,0 l/m² 0 min 131 W/m² 12,9 km/h (3 Bft) 100,00 %
17.03.2026 15:32 12,4 °C 12,2 °C 8,3 °C 85 % 1020,8 hPa 0,0 l/m² 0 min 129 W/m² 12,9 km/h (3 Bft) 100,00 %
17.03.2026 15:34 12,4 °C 12,8 °C 8,3 °C 85 % 1020,8 hPa 0,0 l/m² 0 min 128 W/m² 12,9 km/h (3 Bft) 100,00 %
17.03.2026 15:36 12,4 °C 12,8 °C 8,3 °C 85 % 1020,8 hPa 0,0 l/m² 0 min 130 W/m² 12,9 km/h (3 Bft) 97,87 %
17.03.2026 15:38 12,4 °C 12,8 °C 8,3 °C 84 % 1020,8 hPa 0,0 l/m² 0 min 130 W/m² 16,1 km/h (3 Bft) 98,11 %
17.03.2026 15:40 12,4 °C 12,2 °C 8,3 °C 84 % 1020,8 hPa 0,0 l/m² 0 min 127 W/m² 12,9 km/h (3 Bft) 94,00 %
17.03.2026 15:42 12,4 °C 12,2 °C 8,3 °C 84 % 1020,8 hPa 0,0 l/m² 0 min 118 W/m² 19,3 km/h (3 Bft) 97,96 %
17.03.2026 15:44 12,5 °C 12,2 °C 8,3 °C 84 % 1020,7 hPa 0,0 l/m² 0 min 111 W/m² 12,9 km/h (3 Bft) 94,29 %
17.03.2026 15:46 12,5 °C 12,8 °C 8,3 °C 84 % 1020,7 hPa 0,0 l/m² 0 min 113 W/m² 6,4 km/h (2 Bft) 100,00 %
17.03.2026 15:48 12,5 °C 12,8 °C 8,3 °C 84 % 1020,7 hPa 0,0 l/m² 0 min 112 W/m² 12,9 km/h (3 Bft) 95,74 %
17.03.2026 15:50 12,6 °C 12,2 °C 8,3 °C 84 % 1020,7 hPa 0,0 l/m² 0 min 114 W/m² 12,9 km/h (3 Bft) 93,48 %
17.03.2026 15:52 12,6 °C 12,2 °C 8,3 °C 84 % 1020,7 hPa 0,0 l/m² 0 min 127 W/m² 16,1 km/h (3 Bft) 98,00 %
17.03.2026 15:54 12,6 °C 12,2 °C 8,3 °C 83 % 1020,6 hPa 0,0 l/m² 0 min 143 W/m² 16,1 km/h (3 Bft) 97,87 %
17.03.2026 15:56 12,6 °C 12,8 °C 8,3 °C 83 % 1020,6 hPa 0,0 l/m² 0 min 155 W/m² 12,9 km/h (3 Bft) 97,96 %
17.03.2026 15:58 12,6 °C 12,8 °C 8,3 °C 83 % 1020,6 hPa 0,0 l/m² 0 min 155 W/m² 16,1 km/h (3 Bft) 97,87 %
17.03.2026 16:00 12,6 °C 12,8 °C 8,3 °C 83 % 1020,6 hPa 0,0 l/m² 0 min 146 W/m² 12,9 km/h (3 Bft) 97,14 %
17.03.2026 16:02 12,6 °C 12,8 °C 8,3 °C 83 % 1020,6 hPa 0,0 l/m² 0 min 152 W/m² 12,9 km/h (3 Bft) 97,87 %
17.03.2026 16:04 12,7 °C 12,8 °C 8,9 °C 83 % 1020,6 hPa 0,0 l/m² 0 min 167 W/m² 12,9 km/h (3 Bft) 97,92 %
17.03.2026 16:06 12,7 °C 12,8 °C 8,9 °C 83 % 1020,5 hPa 0,0 l/m² 0 min 178 W/m² 12,9 km/h (3 Bft) 94,55 %
17.03.2026 16:08 12,7 °C 12,8 °C 8,9 °C 83 % 1020,5 hPa 0,0 l/m² 0 min 181 W/m² 19,3 km/h (3 Bft) 93,62 %
17.03.2026 16:10 12,7 °C 13,3 °C 8,9 °C 83 % 1020,5 hPa 0,0 l/m² 2 min 193 W/m² 12,9 km/h (3 Bft) 97,87 %
17.03.2026 16:12 12,8 °C 13,3 °C 8,9 °C 82 % 1020,6 hPa 0,0 l/m² 2 min 202 W/m² 19,3 km/h (3 Bft) 97,96 %
17.03.2026 16:14 12,8 °C 13,3 °C 8,9 °C 83 % 1020,6 hPa 0,0 l/m² 2 min 199 W/m² 12,9 km/h (3 Bft) 97,22 %
17.03.2026 16:16 12,8 °C 13,3 °C 8,9 °C 82 % 1020,5 hPa 0,0 l/m² 2 min 191 W/m² 16,1 km/h (3 Bft) 97,87 %
17.03.2026 16:18 12,9 °C 13,3 °C 8,9 °C 82 % 1020,5 hPa 0,0 l/m² 2 min 182 W/m² 12,9 km/h (3 Bft) 97,87 %
17.03.2026 16:20 12,9 °C 13,3 °C 8,9 °C 82 % 1020,5 hPa 0,0 l/m² 2 min 193 W/m² 22,5 km/h (4 Bft) 97,87 %
17.03.2026 16:22 12,9 °C 13,3 °C 8,9 °C 82 % 1020,5 hPa 0,0 l/m² 2 min 217 W/m² 19,3 km/h (3 Bft) 97,87 %
17.03.2026 16:24 12,9 °C 13,9 °C 8,9 °C 82 % 1020,4 hPa 0,0 l/m² 2 min 219 W/m² 16,1 km/h (3 Bft) 100,00 %
17.03.2026 16:26 13,0 °C 13,9 °C 8,9 °C 81 % 1020,5 hPa 0,0 l/m² 2 min 219 W/m² 19,3 km/h (3 Bft) 97,83 %
17.03.2026 16:28 13,1 °C 13,9 °C 8,9 °C 81 % 1020,4 hPa 0,0 l/m² 2 min 201 W/m² 12,9 km/h (3 Bft) 100,00 %
17.03.2026 16:30 13,1 °C 13,9 °C 8,9 °C 82 % 1020,4 hPa 0,0 l/m² 2 min 179 W/m² 12,9 km/h (3 Bft) 98,18 %
17.03.2026 16:32 13,1 °C 13,9 °C 8,9 °C 82 % 1020,4 hPa 0,0 l/m² 2 min 162 W/m² 12,9 km/h (3 Bft) 100,00 %
17.03.2026 16:34 13,1 °C 13,3 °C 8,9 °C 81 % 1020,4 hPa 0,0 l/m² 0 min 156 W/m² 19,3 km/h (3 Bft) 100,00 %
17.03.2026 16:36 13,2 °C 13,3 °C 8,9 °C 81 % 1020,4 hPa 0,0 l/m² 0 min 152 W/m² 16,1 km/h (3 Bft) 100,00 %
17.03.2026 16:38 13,2 °C 13,3 °C 8,9 °C 81 % 1020,4 hPa 0,0 l/m² 0 min 148 W/m² 19,3 km/h (3 Bft) 100,00 %
17.03.2026 16:40 13,2 °C 13,3 °C 8,9 °C 80 % 1020,4 hPa 0,0 l/m² 0 min 138 W/m² 12,9 km/h (3 Bft) 100,00 %
17.03.2026 16:42 13,2 °C 12,8 °C 8,9 °C 80 % 1020,3 hPa 0,0 l/m² 0 min 126 W/m² 16,1 km/h (3 Bft) 100,00 %
17.03.2026 16:44 13,2 °C 12,8 °C 8,9 °C 80 % 1020,3 hPa 0,0 l/m² 0 min 117 W/m² 16,1 km/h (3 Bft) 100,00 %
17.03.2026 16:46 13,2 °C 12,8 °C 8,9 °C 80 % 1020,3 hPa 0,0 l/m² 0 min 111 W/m² 12,9 km/h (3 Bft) 100,00 %
17.03.2026 16:48 13,1 °C 12,8 °C 8,3 °C 80 % 1020,3 hPa 0,0 l/m² 0 min 103 W/m² 19,3 km/h (3 Bft) 97,83 %
17.03.2026 16:50 13,1 °C 12,8 °C 8,3 °C 80 % 1020,3 hPa 0,0 l/m² 0 min 93 W/m² 16,1 km/h (3 Bft) 100,00 %
17.03.2026 16:52 13,1 °C 12,8 °C 8,3 °C 80 % 1020,3 hPa 0,0 l/m² 0 min 83 W/m² 12,9 km/h (3 Bft) 100,00 %
17.03.2026 16:54 13,1 °C 12,8 °C 8,3 °C 81 % 1020,3 hPa 0,0 l/m² 0 min 74 W/m² 9,7 km/h (2 Bft) 100,00 %
17.03.2026 16:56 13,1 °C 12,8 °C 8,3 °C 81 % 1020,2 hPa 0,0 l/m² 0 min 66 W/m² 16,1 km/h (3 Bft) 100,00 %
17.03.2026 16:58 13,1 °C 12,2 °C 8,3 °C 81 % 1020,3 hPa 0,0 l/m² 0 min 62 W/m² 16,1 km/h (3 Bft) 95,74 %
17.03.2026 17:00 13,1 °C 12,2 °C 8,3 °C 81 % 1020,2 hPa 0,0 l/m² 0 min 59 W/m² 19,3 km/h (3 Bft) 97,83 %
17.03.2026 17:02 13,0 °C 12,2 °C 8,3 °C 81 % 1020,3 hPa 0,0 l/m² 0 min 56 W/m² 9,7 km/h (2 Bft) 100,00 %
17.03.2026 17:04 13,0 °C 12,2 °C 8,3 °C 81 % 1020,2 hPa 0,0 l/m² 0 min 57 W/m² 12,9 km/h (3 Bft) 97,87 %
17.03.2026 17:06 13,0 °C 12,2 °C 8,3 °C 81 % 1020,3 hPa 0,0 l/m² 0 min 64 W/m² 9,7 km/h (2 Bft) 97,87 %
17.03.2026 17:08 12,9 °C 12,2 °C 8,3 °C 81 % 1020,2 hPa 0,0 l/m² 0 min 72 W/m² 12,9 km/h (3 Bft) 95,74 %
17.03.2026 17:10 12,9 °C 12,2 °C 8,3 °C 81 % 1020,2 hPa 0,0 l/m² 0 min 79 W/m² 6,4 km/h (2 Bft) 97,83 %
17.03.2026 17:12 12,9 °C 12,2 °C 8,3 °C 81 % 1020,2 hPa 0,0 l/m² 0 min 90 W/m² 12,9 km/h (3 Bft) 97,87 %
17.03.2026 17:14 12,9 °C 12,2 °C 8,3 °C 81 % 1020,3 hPa 0,0 l/m² 0 min 92 W/m² 12,9 km/h (3 Bft) 97,87 %
17.03.2026 17:16 12,9 °C 12,2 °C 8,3 °C 81 % 1020,3 hPa 0,0 l/m² 0 min 90 W/m² 6,4 km/h (2 Bft) 95,74 %
17.03.2026 17:18 12,9 °C 12,8 °C 8,3 °C 81 % 1020,3 hPa 0,0 l/m² 0 min 86 W/m² 6,4 km/h (2 Bft) 93,62 %
17.03.2026 17:20 12,9 °C 12,8 °C 8,3 °C 81 % 1020,2 hPa 0,0 l/m² 0 min 80 W/m² 6,4 km/h (2 Bft) 91,49 %
17.03.2026 17:22 12,9 °C 12,2 °C 8,3 °C 81 % 1020,3 hPa 0,0 l/m² 0 min 76 W/m² 16,1 km/h (3 Bft) 97,83 %
17.03.2026 17:24 12,8 °C 12,2 °C 8,3 °C 81 % 1020,3 hPa 0,0 l/m² 0 min 73 W/m² 6,4 km/h (2 Bft) 95,74 %
17.03.2026 17:26 12,9 °C 12,2 °C 8,3 °C 81 % 1020,3 hPa 0,0 l/m² 0 min 71 W/m² 12,9 km/h (3 Bft) 95,74 %
17.03.2026 17:28 12,8 °C 12,2 °C 8,3 °C 81 % 1020,2 hPa 0,0 l/m² 0 min 70 W/m² 12,9 km/h (3 Bft) 95,74 %
17.03.2026 17:30 12,8 °C 12,2 °C 8,3 °C 81 % 1020,2 hPa 0,0 l/m² 0 min 69 W/m² 16,1 km/h (3 Bft) 95,74 %
17.03.2026 17:32 12,8 °C 12,2 °C 8,3 °C 81 % 1020,2 hPa 0,0 l/m² 0 min 67 W/m² 12,9 km/h (3 Bft) 95,74 %
17.03.2026 17:34 12,8 °C 12,2 °C 8,3 °C 81 % 1020,2 hPa 0,0 l/m² 0 min 67 W/m² 12,9 km/h (3 Bft) 97,83 %
17.03.2026 17:36 12,8 °C 12,2 °C 8,3 °C 81 % 1020,3 hPa 0,0 l/m² 0 min 66 W/m² 16,1 km/h (3 Bft) 97,87 %
17.03.2026 17:38 12,8 °C 12,2 °C 8,3 °C 81 % 1020,1 hPa 0,0 l/m² 0 min 65 W/m² 12,9 km/h (3 Bft) 97,87 %
17.03.2026 17:40 12,8 °C 12,2 °C 8,3 °C 81 % 1020,3 hPa 0,0 l/m² 0 min 68 W/m² 12,9 km/h (3 Bft) 95,74 %
17.03.2026 17:42 12,8 °C 12,2 °C 8,3 °C 80 % 1020,3 hPa 0,0 l/m² 0 min 66 W/m² 16,1 km/h (3 Bft) 97,87 %
17.03.2026 17:44 12,8 °C 12,2 °C 8,3 °C 80 % 1020,3 hPa 0,0 l/m² 0 min 64 W/m² 12,9 km/h (3 Bft) 97,87 %
17.03.2026 17:46 12,8 °C 12,2 °C 8,3 °C 80 % 1020,3 hPa 0,0 l/m² 0 min 62 W/m² 12,9 km/h (3 Bft) 97,83 %
17.03.2026 17:48 12,8 °C 12,2 °C 8,3 °C 80 % 1020,3 hPa 0,0 l/m² 0 min 58 W/m² 12,9 km/h (3 Bft) 97,87 %
17.03.2026 17:50 12,8 °C 12,2 °C 8,3 °C 81 % 1020,3 hPa 0,0 l/m² 0 min 54 W/m² 6,4 km/h (2 Bft) 97,87 %
17.03.2026 17:52 12,8 °C 12,2 °C 8,3 °C 81 % 1020,3 hPa 0,0 l/m² 0 min 52 W/m² 6,4 km/h (2 Bft) 95,74 %
17.03.2026 17:54 12,8 °C 12,2 °C 8,3 °C 81 % 1020,4 hPa 0,0 l/m² 0 min 49 W/m² 6,4 km/h (2 Bft) 95,74 %
17.03.2026 17:56 12,8 °C 12,2 °C 8,3 °C 81 % 1020,4 hPa 0,0 l/m² 0 min 52 W/m² 12,9 km/h (3 Bft) 97,83 %
17.03.2026 17:58 12,8 °C 12,2 °C 8,3 °C 81 % 1020,4 hPa 0,0 l/m² 2 min 54 W/m² 6,4 km/h (2 Bft) 97,87 %
17.03.2026 18:00 12,8 °C 12,2 °C 8,3 °C 81 % 1020,4 hPa 0,0 l/m² 0 min 49 W/m² 12,9 km/h (3 Bft) 100,00 %
17.03.2026 18:02 12,8 °C 12,2 °C 7,8 °C 81 % 1020,3 hPa 0,0 l/m² 0 min 46 W/m² 12,9 km/h (3 Bft) 95,74 %
17.03.2026 18:04 12,8 °C 12,2 °C 7,8 °C 81 % 1020,4 hPa 0,0 l/m² 0 min 40 W/m² 12,9 km/h (3 Bft) 100,00 %
17.03.2026 18:07 12,8 °C 12,2 °C 7,8 °C 81 % 1020,5 hPa 0,0 l/m² 0 min 34 W/m² 12,9 km/h (3 Bft) 98,65 %
17.03.2026 18:08 12,8 °C 12,2 °C 7,8 °C 81 % 1020,5 hPa 0,0 l/m² 0 min 30 W/m² 6,4 km/h (2 Bft) 100,00 %
17.03.2026 18:12 12,7 °C 12,2 °C 7,8 °C 80 % 1020,6 hPa 0,0 l/m² 0 min 22 W/m² 6,4 km/h (2 Bft) 100,00 %
17.03.2026 18:14 12,7 °C 11,7 °C 7,8 °C 81 % 1020,6 hPa 0,0 l/m² 0 min 19 W/m² 6,4 km/h (2 Bft) 97,87 %
17.03.2026 18:16 12,7 °C 11,7 °C 7,8 °C 81 % 1020,5 hPa 0,0 l/m² 0 min 16 W/m² 6,4 km/h (2 Bft) 97,87 %
17.03.2026 18:18 12,7 °C 11,7 °C 7,8 °C 81 % 1020,6 hPa 0,0 l/m² 0 min 16 W/m² 6,4 km/h (2 Bft) 97,87 %
17.03.2026 18:20 12,6 °C 11,7 °C 7,8 °C 81 % 1020,6 hPa 0,0 l/m² 0 min 13 W/m² 6,4 km/h (2 Bft) 97,87 %
17.03.2026 18:22 12,6 °C 11,7 °C 7,8 °C 82 % 1020,6 hPa 0,0 l/m² 0 min 12 W/m² 3,2 km/h (1 Bft) 98,11 %
17.03.2026 18:24 12,6 °C 11,1 °C 7,2 °C 81 % 1020,6 hPa 0,0 l/m² 0 min 11 W/m² 3,2 km/h (1 Bft) 97,37 %
17.03.2026 18:26 12,5 °C 11,1 °C 7,2 °C 82 % 1020,6 hPa 0,0 l/m² 0 min 10 W/m² 6,4 km/h (2 Bft) 97,96 %
17.03.2026 18:28 12,4 °C 11,1 °C 7,2 °C 82 % 1020,6 hPa 0,0 l/m² 0 min 9 W/m² 3,2 km/h (1 Bft) 95,74 %
17.03.2026 18:30 12,4 °C 11,1 °C 7,2 °C 82 % 1020,6 hPa 0,0 l/m² 0 min 9 W/m² 3,2 km/h (1 Bft) 97,87 %
17.03.2026 18:32 12,4 °C 11,1 °C 7,2 °C 82 % 1020,6 hPa 0,0 l/m² 0 min 8 W/m² 3,2 km/h (1 Bft) 98,11 %
17.03.2026 18:34 12,3 °C 10,6 °C 7,2 °C 82 % 1020,6 hPa 0,0 l/m² 0 min 7 W/m² 6,4 km/h (2 Bft) 95,74 %
17.03.2026 18:36 12,3 °C 10,6 °C 7,2 °C 82 % 1020,6 hPa 0,0 l/m² 0 min 7 W/m² 6,4 km/h (2 Bft) 97,37 %
17.03.2026 18:38 12,2 °C 10,6 °C 7,2 °C 82 % 1020,6 hPa 0,0 l/m² 0 min 6 W/m² 3,2 km/h (1 Bft) 95,74 %
17.03.2026 18:40 12,1 °C 10,6 °C 6,7 °C 82 % 1020,7 hPa 0,0 l/m² 0 min 5 W/m² 3,2 km/h (1 Bft) 97,96 %
17.03.2026 18:42 12,1 °C 10,6 °C 6,7 °C 82 % 1020,6 hPa 0,0 l/m² 0 min 5 W/m² 3,2 km/h (1 Bft) 97,87 %
17.03.2026 18:44 12,0 °C 10,6 °C 6,7 °C 83 % 1020,7 hPa 0,0 l/m² 0 min 0 W/m² 6,4 km/h (2 Bft) 95,74 %
17.03.2026 18:46 11,9 °C 10,6 °C 6,7 °C 83 % 1020,7 hPa 0,0 l/m² 0 min 0 W/m² 3,2 km/h (1 Bft) 95,65 %
17.03.2026 18:48 11,9 °C 10,0 °C 6,7 °C 83 % 1020,7 hPa 0,0 l/m² 0 min 0 W/m² 3,2 km/h (1 Bft) 98,15 %
17.03.2026 18:50 11,8 °C 10,0 °C 6,7 °C 83 % 1020,7 hPa 0,0 l/m² 0 min 0 W/m² 0,0 km/h (0 Bft) 97,37 %
17.03.2026 18:52 11,8 °C 10,0 °C 6,7 °C 83 % 1020,7 hPa 0,0 l/m² 0 min 0 W/m² 6,4 km/h (2 Bft) 95,92 %
17.03.2026 18:54 11,7 °C 10,0 °C 6,7 °C 84 % 1020,7 hPa 0,0 l/m² 0 min 0 W/m² 3,2 km/h (1 Bft) 97,87 %
17.03.2026 18:56 11,7 °C 10,0 °C 6,7 °C 84 % 1020,8 hPa 0,0 l/m² 0 min 0 W/m² 3,2 km/h (1 Bft) 94,34 %
17.03.2026 18:58 11,6 °C 10,0 °C 6,1 °C 84 % 1020,7 hPa 0,0 l/m² 0 min 0 W/m² 0,0 km/h (0 Bft) 94,87 %
17.03.2026 19:00 11,6 °C 10,0 °C 6,1 °C 84 % 1020,7 hPa 0,0 l/m² 0 min 0 W/m² 3,2 km/h (1 Bft) 95,83 %
17.03.2026 19:02 11,5 °C 10,0 °C 6,1 °C 84 % 1020,7 hPa 0,0 l/m² 0 min 0 W/m² 0,0 km/h (0 Bft) 93,62 %
17.03.2026 19:04 11,4 °C 9,4 °C 6,1 °C 84 % 1020,7 hPa 0,0 l/m² 0 min 0 W/m² 3,2 km/h (1 Bft) 97,92 %
17.03.2026 19:06 11,4 °C 9,4 °C 6,1 °C 84 % 1020,7 hPa 0,0 l/m² 0 min 0 W/m² 3,2 km/h (1 Bft) 97,87 %
17.03.2026 19:08 11,3 °C 9,4 °C 6,1 °C 84 % 1020,7 hPa 0,0 l/m² 0 min 0 W/m² 0,0 km/h (0 Bft) 97,87 %
17.03.2026 19:10 11,2 °C 9,4 °C 6,1 °C 84 % 1020,8 hPa 0,0 l/m² 0 min 0 W/m² 3,2 km/h (1 Bft) 97,83 %
17.03.2026 19:12 11,2 °C 9,4 °C 6,1 °C 85 % 1020,8 hPa 0,0 l/m² 0 min 0 W/m² 3,2 km/h (1 Bft) 95,74 %
17.03.2026 19:14 11,1 °C 9,4 °C 6,1 °C 85 % 1020,8 hPa 0,0 l/m² 0 min 0 W/m² 3,2 km/h (1 Bft) 97,92 %
17.03.2026 19:16 11,1 °C 9,4 °C 6,1 °C 85 % 1020,9 hPa 0,0 l/m² 0 min 0 W/m² 3,2 km/h (1 Bft) 95,74 %
17.03.2026 19:18 11,1 °C 9,4 °C 6,1 °C 85 % 1020,9 hPa 0,0 l/m² 0 min 0 W/m² 3,2 km/h (1 Bft) 97,67 %
17.03.2026 19:20 11,0 °C 9,4 °C 6,1 °C 85 % 1020,9 hPa 0,0 l/m² 0 min 0 W/m² 3,2 km/h (1 Bft) 97,96 %
17.03.2026 19:22 10,9 °C 9,4 °C 5,6 °C 85 % 1020,9 hPa 0,0 l/m² 0 min 0 W/m² 0,0 km/h (0 Bft) 97,87 %
17.03.2026 19:24 10,9 °C 9,4 °C 5,6 °C 85 % 1020,9 hPa 0,0 l/m² 0 min 0 W/m² 3,2 km/h (1 Bft) 97,87 %
17.03.2026 19:26 10,9 °C 9,4 °C 5,6 °C 85 % 1020,9 hPa 0,0 l/m² 0 min 0 W/m² 0,0 km/h (0 Bft) 97,92 %
17.03.2026 19:28 10,8 °C 9,4 °C 5,6 °C 86 % 1020,9 hPa 0,0 l/m² 0 min 0 W/m² 0,0 km/h (0 Bft) 97,87 %
17.03.2026 19:30 10,8 °C 9,4 °C 5,6 °C 86 % 1020,9 hPa 0,0 l/m² 0 min 0 W/m² 3,2 km/h (1 Bft) 100,00 %
17.03.2026 19:32 10,8 °C 9,4 °C 5,6 °C 86 % 1021,0 hPa 0,0 l/m² 0 min 0 W/m² 3,2 km/h (1 Bft) 97,67 %
17.03.2026 19:34 10,7 °C 9,4 °C 5,6 °C 86 % 1021,0 hPa 0,0 l/m² 0 min 0 W/m² 3,2 km/h (1 Bft) 97,96 %
17.03.2026 19:36 10,7 °C 9,4 °C 5,6 °C 86 % 1021,0 hPa 0,0 l/m² 0 min 0 W/m² 3,2 km/h (1 Bft) 97,92 %
17.03.2026 19:38 10,7 °C 9,4 °C 5,6 °C 86 % 1021,0 hPa 0,0 l/m² 0 min 0 W/m² 3,2 km/h (1 Bft) 100,00 %
17.03.2026 19:40 10,7 °C 9,4 °C 5,6 °C 86 % 1021,0 hPa 0,0 l/m² 0 min 0 W/m² 3,2 km/h (1 Bft) 97,87 %
17.03.2026 19:42 10,6 °C 9,4 °C 5,6 °C 86 % 1021,1 hPa 0,0 l/m² 0 min 0 W/m² 3,2 km/h (1 Bft) 100,00 %
17.03.2026 19:44 10,6 °C 9,4 °C 5,6 °C 86 % 1021,1 hPa 0,0 l/m² 0 min 0 W/m² 6,4 km/h (2 Bft) 95,74 %
17.03.2026 19:46 10,6 °C 9,4 °C 5,6 °C 86 % 1021,1 hPa 0,0 l/m² 0 min 0 W/m² 6,4 km/h (2 Bft) 100,00 %
17.03.2026 19:48 10,6 °C 9,4 °C 5,6 °C 86 % 1021,2 hPa 0,0 l/m² 0 min 0 W/m² 3,2 km/h (1 Bft) 97,87 %
17.03.2026 19:50 10,6 °C 9,4 °C 5,6 °C 87 % 1021,2 hPa 0,0 l/m² 0 min 0 W/m² 3,2 km/h (1 Bft) 100,00 %
17.03.2026 19:52 10,5 °C 9,4 °C 5,6 °C 87 % 1021,2 hPa 0,0 l/m² 0 min 0 W/m² 6,4 km/h (2 Bft) 98,00 %
17.03.2026 19:54 10,5 °C 9,4 °C 6,1 °C 87 % 1021,2 hPa 0,0 l/m² 0 min 0 W/m² 6,4 km/h (2 Bft) 97,87 %
17.03.2026 19:56 10,6 °C 9,4 °C 6,1 °C 87 % 1021,2 hPa 0,0 l/m² 0 min 0 W/m² 3,2 km/h (1 Bft) 97,83 %
17.03.2026 19:58 10,5 °C 9,4 °C 5,6 °C 87 % 1021,2 hPa 0,0 l/m² 0 min 0 W/m² 3,2 km/h (1 Bft) 95,74 %
17.03.2026 20:00 10,5 °C 9,4 °C 5,6 °C 87 % 1021,2 hPa 0,0 l/m² 0 min 0 W/m² 0,0 km/h (0 Bft) 97,92 %
17.03.2026 20:02 10,5 °C 9,4 °C 5,6 °C 87 % 1021,2 hPa 0,0 l/m² 0 min 0 W/m² 0,0 km/h (0 Bft) 95,74 %
17.03.2026 20:04 10,4 °C 9,4 °C 5,6 °C 87 % 1021,2 hPa 0,0 l/m² 0 min 0 W/m² 3,2 km/h (1 Bft) 97,67 %
17.03.2026 20:06 10,4 °C 9,4 °C 5,6 °C 87 % 1021,3 hPa 0,0 l/m² 0 min 0 W/m² 0,0 km/h (0 Bft) 96,55 %
17.03.2026 20:08 10,4 °C 9,4 °C 5,6 °C 86 % 1021,3 hPa 0,0 l/m² 0 min 0 W/m² 3,2 km/h (1 Bft) 100,00 %
17.03.2026 20:10 10,4 °C 9,4 °C 5,6 °C 86 % 1021,3 hPa 0,0 l/m² 0 min 0 W/m² 3,2 km/h (1 Bft) 95,74 %
17.03.2026 20:12 10,4 °C 9,4 °C 5,6 °C 86 % 1021,3 hPa 0,0 l/m² 0 min 0 W/m² 3,2 km/h (1 Bft) 97,87 %
17.03.2026 20:14 10,4 °C 8,9 °C 5,6 °C 86 % 1021,3 hPa 0,0 l/m² 0 min 0 W/m² 0,0 km/h (0 Bft) 97,96 %
17.03.2026 20:16 10,3 °C 8,9 °C 5,6 °C 86 % 1021,3 hPa 0,0 l/m² 0 min 0 W/m² 0,0 km/h (0 Bft) 97,87 %
17.03.2026 20:18 10,3 °C 8,9 °C 5,6 °C 86 % 1021,3 hPa 0,0 l/m² 0 min 0 W/m² 3,2 km/h (1 Bft) 95,24 %
17.03.2026 20:20 10,3 °C 8,9 °C 5,6 °C 86 % 1021,3 hPa 0,0 l/m² 0 min 0 W/m² 3,2 km/h (1 Bft) 97,96 %
17.03.2026 20:22 10,3 °C 8,9 °C 5,0 °C 86 % 1021,3 hPa 0,0 l/m² 0 min 0 W/m² 0,0 km/h (0 Bft) 97,87 %
17.03.2026 20:24 10,3 °C 8,9 °C 5,0 °C 86 % 1021,3 hPa 0,0 l/m² 0 min 0 W/m² 3,2 km/h (1 Bft) 95,92 %
17.03.2026 20:26 10,2 °C 8,9 °C 5,0 °C 87 % 1021,3 hPa 0,0 l/m² 0 min 0 W/m² 0,0 km/h (0 Bft) 95,74 %
17.03.2026 20:28 10,2 °C 8,9 °C 5,0 °C 86 % 1021,3 hPa 0,0 l/m² 0 min 0 W/m² 3,2 km/h (1 Bft) 97,62 %
17.03.2026 20:30 10,2 °C 8,9 °C 5,0 °C 87 % 1021,3 hPa 0,0 l/m² 0 min 0 W/m² 0,0 km/h (0 Bft) 97,96 %
17.03.2026 20:32 10,2 °C 8,9 °C 5,0 °C 87 % 1021,3 hPa 0,0 l/m² 0 min 0 W/m² 3,2 km/h (1 Bft) 97,96 %
17.03.2026 20:34 10,1 °C 8,9 °C 5,0 °C 87 % 1021,3 hPa 0,0 l/m² 0 min 0 W/m² 0,0 km/h (0 Bft) 95,74 %
17.03.2026 20:36 10,1 °C 8,9 °C 5,0 °C 87 % 1021,3 hPa 0,0 l/m² 0 min 0 W/m² 6,4 km/h (2 Bft) 100,00 %
17.03.2026 20:38 10,1 °C 8,9 °C 5,0 °C 87 % 1021,3 hPa 0,0 l/m² 0 min 0 W/m² 3,2 km/h (1 Bft) 100,00 %
17.03.2026 20:40 10,1 °C 8,9 °C 5,0 °C 87 % 1021,4 hPa 0,0 l/m² 0 min 0 W/m² 3,2 km/h (1 Bft) 97,87 %
17.03.2026 20:42 10,1 °C 8,9 °C 5,0 °C 87 % 1021,3 hPa 0,0 l/m² 0 min 0 W/m² 9,7 km/h (2 Bft) 97,83 %
17.03.2026 20:44 10,0 °C 8,9 °C 5,0 °C 87 % 1021,3 hPa 0,0 l/m² 0 min 0 W/m² 3,2 km/h (1 Bft) 97,87 %
17.03.2026 20:46 9,9 °C 8,9 °C 5,0 °C 87 % 1021,3 hPa 0,0 l/m² 0 min 0 W/m² 6,4 km/h (2 Bft) 97,96 %
17.03.2026 20:48 9,9 °C 8,9 °C 5,0 °C 87 % 1021,3 hPa 0,0 l/m² 0 min 0 W/m² 6,4 km/h (2 Bft) 97,87 %
17.03.2026 20:50 9,9 °C 8,9 °C 5,0 °C 87 % 1021,3 hPa 0,0 l/m² 0 min 0 W/m² 3,2 km/h (1 Bft) 97,87 %
17.03.2026 20:52 9,9 °C 8,9 °C 5,0 °C 87 % 1021,3 hPa 0,0 l/m² 0 min 0 W/m² 6,4 km/h (2 Bft) 97,83 %
17.03.2026 20:54 9,9 °C 8,9 °C 5,0 °C 87 % 1021,3 hPa 0,0 l/m² 0 min 0 W/m² 3,2 km/h (1 Bft) 97,62 %
17.03.2026 20:56 9,9 °C 8,9 °C 5,0 °C 87 % 1021,3 hPa 0,0 l/m² 0 min 0 W/m² 6,4 km/h (2 Bft) 96,00 %
17.03.2026 20:58 9,8 °C 8,9 °C 5,0 °C 87 % 1021,3 hPa 0,0 l/m² 0 min 0 W/m² 3,2 km/h (1 Bft) 97,96 %
17.03.2026 21:00 9,8 °C 8,9 °C 5,0 °C 87 % 1021,3 hPa 0,0 l/m² 0 min 0 W/m² 3,2 km/h (1 Bft) 97,87 %
17.03.2026 21:02 9,8 °C 8,9 °C 5,0 °C 87 % 1021,3 hPa 0,0 l/m² 0 min 0 W/m² 3,2 km/h (1 Bft) 95,24 %
17.03.2026 21:04 9,8 °C 8,9 °C 5,0 °C 87 % 1021,3 hPa 0,0 l/m² 0 min 0 W/m² 3,2 km/h (1 Bft) 98,00 %
17.03.2026 21:06 9,8 °C 8,3 °C 5,0 °C 87 % 1021,3 hPa 0,0 l/m² 0 min 0 W/m² 3,2 km/h (1 Bft) 93,48 %
17.03.2026 21:08 9,8 °C 8,3 °C 5,0 °C 87 % 1021,3 hPa 0,0 l/m² 0 min 0 W/m² 3,2 km/h (1 Bft) 95,92 %
17.03.2026 21:10 9,8 °C 8,3 °C 5,0 °C 87 % 1021,3 hPa 0,0 l/m² 0 min 0 W/m² 12,9 km/h (3 Bft) 97,87 %
17.03.2026 21:12 9,7 °C 8,9 °C 5,0 °C 87 % 1021,4 hPa 0,0 l/m² 0 min 0 W/m² 3,2 km/h (1 Bft) 97,92 %
17.03.2026 21:14 9,8 °C 8,9 °C 5,0 °C 87 % 1021,4 hPa 0,0 l/m² 0 min 0 W/m² 3,2 km/h (1 Bft) 97,87 %
17.03.2026 21:16 9,7 °C 8,3 °C 5,0 °C 87 % 1021,4 hPa 0,0 l/m² 0 min 0 W/m² 3,2 km/h (1 Bft) 97,83 %
17.03.2026 21:18 9,7 °C 8,3 °C 5,0 °C 87 % 1021,4 hPa 0,0 l/m² 0 min 0 W/m² 3,2 km/h (1 Bft) 94,44 %
17.03.2026 21:20 9,7 °C 8,9 °C 5,0 °C 87 % 1021,4 hPa 0,0 l/m² 0 min 0 W/m² 3,2 km/h (1 Bft) 96,30 %
17.03.2026 21:22 9,7 °C 8,9 °C 5,0 °C 87 % 1021,4 hPa 0,0 l/m² 0 min 0 W/m² 6,4 km/h (2 Bft) 97,87 %
17.03.2026 21:24 9,7 °C 8,9 °C 5,0 °C 88 % 1021,5 hPa 0,0 l/m² 0 min 0 W/m² 3,2 km/h (1 Bft) 98,00 %
17.03.2026 21:26 9,7 °C 8,9 °C 5,0 °C 88 % 1021,5 hPa 0,0 l/m² 0 min 0 W/m² 12,9 km/h (3 Bft) 95,83 %
17.03.2026 21:28 9,7 °C 8,9 °C 5,0 °C 88 % 1021,5 hPa 0,0 l/m² 0 min 0 W/m² 12,9 km/h (3 Bft) 95,65 %
17.03.2026 21:30 9,7 °C 8,9 °C 5,0 °C 88 % 1021,5 hPa 0,0 l/m² 0 min 0 W/m² 6,4 km/h (2 Bft) 95,74 %
17.03.2026 21:32 9,7 °C 8,9 °C 5,0 °C 88 % 1021,6 hPa 0,0 l/m² 0 min 0 W/m² 9,7 km/h (2 Bft) 97,14 %
17.03.2026 21:34 9,7 °C 8,9 °C 5,0 °C 88 % 1021,5 hPa 0,0 l/m² 0 min 0 W/m² 12,9 km/h (3 Bft) 98,18 %
17.03.2026 21:36 9,7 °C 8,9 °C 5,6 °C 88 % 1021,6 hPa 0,0 l/m² 0 min 0 W/m² 6,4 km/h (2 Bft) 96,00 %
17.03.2026 21:38 9,7 °C 8,9 °C 5,6 °C 88 % 1021,6 hPa 0,0 l/m² 0 min 0 W/m² 12,9 km/h (3 Bft) 93,75 %
17.03.2026 21:40 9,7 °C 8,9 °C 5,6 °C 88 % 1021,6 hPa 0,0 l/m² 0 min 0 W/m² 6,4 km/h (2 Bft) 97,14 %
17.03.2026 21:42 9,7 °C 8,9 °C 5,0 °C 88 % 1021,6 hPa 0,0 l/m² 0 min 0 W/m² 9,7 km/h (2 Bft) 98,15 %
17.03.2026 21:44 9,7 °C 8,9 °C 5,0 °C 88 % 1021,7 hPa 0,0 l/m² 0 min 0 W/m² 9,7 km/h (2 Bft) 98,00 %
17.03.2026 21:46 9,8 °C 8,9 °C 5,0 °C 88 % 1021,7 hPa 0,0 l/m² 0 min 0 W/m² 6,4 km/h (2 Bft) 97,87 %
17.03.2026 21:48 9,8 °C 8,9 °C 5,0 °C 88 % 1021,7 hPa 0,0 l/m² 0 min 0 W/m² 6,4 km/h (2 Bft) 97,87 %
17.03.2026 21:50 9,8 °C 8,9 °C 5,0 °C 88 % 1021,7 hPa 0,0 l/m² 0 min 0 W/m² 3,2 km/h (1 Bft) 97,87 %
17.03.2026 21:52 9,7 °C 8,9 °C 5,0 °C 88 % 1021,7 hPa 0,0 l/m² 0 min 0 W/m² 6,4 km/h (2 Bft) 97,87 %
17.03.2026 21:54 9,7 °C 8,9 °C 5,0 °C 88 % 1021,6 hPa 0,0 l/m² 0 min 0 W/m² 3,2 km/h (1 Bft) 97,14 %
17.03.2026 21:56 9,8 °C 8,9 °C 5,0 °C 88 % 1021,7 hPa 0,0 l/m² 0 min 0 W/m² 6,4 km/h (2 Bft) 96,36 %
17.03.2026 21:58 9,8 °C 8,9 °C 5,0 °C 88 % 1021,7 hPa 0,0 l/m² 0 min 0 W/m² 12,9 km/h (3 Bft) 95,74 %
17.03.2026 22:00 9,8 °C 8,9 °C 5,0 °C 88 % 1021,7 hPa 0,0 l/m² 0 min 0 W/m² 6,4 km/h (2 Bft) 93,62 %
17.03.2026 22:02 9,8 °C 8,9 °C 5,0 °C 88 % 1021,7 hPa 0,0 l/m² 0 min 0 W/m² 3,2 km/h (1 Bft) 95,74 %
17.03.2026 22:04 9,8 °C 8,9 °C 5,0 °C 88 % 1021,7 hPa 0,0 l/m² 0 min 0 W/m² 6,4 km/h (2 Bft) 97,96 %
17.03.2026 22:06 9,8 °C 8,9 °C 5,0 °C 88 % 1021,7 hPa 0,0 l/m² 0 min 0 W/m² 6,4 km/h (2 Bft) 100,00 %
17.03.2026 22:08 9,7 °C 8,9 °C 5,0 °C 88 % 1021,7 hPa 0,0 l/m² 0 min 0 W/m² 6,4 km/h (2 Bft) 100,00 %
17.03.2026 22:10 9,7 °C 8,9 °C 5,0 °C 88 % 1021,7 hPa 0,0 l/m² 0 min 0 W/m² 6,4 km/h (2 Bft) 97,87 %
17.03.2026 22:12 9,7 °C 8,9 °C 5,0 °C 88 % 1021,7 hPa 0,0 l/m² 0 min 0 W/m² 6,4 km/h (2 Bft) 94,29 %
17.03.2026 22:14 9,7 °C 8,9 °C 5,0 °C 88 % 1021,8 hPa 0,0 l/m² 0 min 0 W/m² 12,9 km/h (3 Bft) 97,87 %
17.03.2026 22:16 9,7 °C 8,9 °C 5,0 °C 88 % 1021,8 hPa 0,0 l/m² 0 min 0 W/m² 3,2 km/h (1 Bft) 100,00 %
17.03.2026 22:18 9,7 °C 8,9 °C 5,0 °C 88 % 1021,8 hPa 0,0 l/m² 0 min 0 W/m² 6,4 km/h (2 Bft) 100,00 %
17.03.2026 22:20 9,7 °C 8,9 °C 5,0 °C 88 % 1021,9 hPa 0,0 l/m² 0 min 0 W/m² 6,4 km/h (2 Bft) 100,00 %
17.03.2026 22:22 9,7 °C 8,9 °C 5,0 °C 88 % 1021,9 hPa 0,0 l/m² 0 min 0 W/m² 6,4 km/h (2 Bft) 95,92 %
17.03.2026 22:24 9,8 °C 8,9 °C 5,0 °C 88 % 1021,8 hPa 0,0 l/m² 0 min 0 W/m² 12,9 km/h (3 Bft) 100,00 %
17.03.2026 22:26 9,7 °C 8,9 °C 5,0 °C 88 % 1021,9 hPa 0,0 l/m² 0 min 0 W/m² 12,9 km/h (3 Bft) 95,74 %
17.03.2026 22:28 9,7 °C 8,9 °C 5,0 °C 88 % 1021,9 hPa 0,0 l/m² 0 min 0 W/m² 6,4 km/h (2 Bft) 95,74 %
17.03.2026 22:30 9,7 °C 8,9 °C 5,0 °C 88 % 1021,8 hPa 0,0 l/m² 0 min 0 W/m² 6,4 km/h (2 Bft) 96,23 %
17.03.2026 22:32 9,7 °C 8,9 °C 5,0 °C 88 % 1021,8 hPa 0,0 l/m² 0 min 0 W/m² 6,4 km/h (2 Bft) 97,87 %
17.03.2026 22:34 9,7 °C 8,9 °C 5,0 °C 88 % 1021,8 hPa 0,0 l/m² 0 min 0 W/m² 3,2 km/h (1 Bft) 92,00 %
17.03.2026 22:36 9,7 °C 8,9 °C 5,0 °C 88 % 1021,8 hPa 0,0 l/m² 0 min 0 W/m² 0,0 km/h (0 Bft) 95,92 %
17.03.2026 22:38 9,7 °C 8,9 °C 5,0 °C 88 % 1021,9 hPa 0,0 l/m² 0 min 0 W/m² 9,7 km/h (2 Bft) 93,48 %
17.03.2026 22:40 9,7 °C 8,9 °C 5,0 °C 88 % 1021,9 hPa 0,0 l/m² 0 min 0 W/m² 6,4 km/h (2 Bft) 97,22 %
17.03.2026 22:42 9,7 °C 8,9 °C 5,0 °C 88 % 1021,9 hPa 0,0 l/m² 0 min 0 W/m² 12,9 km/h (3 Bft) 94,34 %
17.03.2026 22:44 9,7 °C 8,9 °C 5,0 °C 88 % 1021,9 hPa 0,0 l/m² 0 min 0 W/m² 6,4 km/h (2 Bft) 96,00 %
17.03.2026 22:46 9,7 °C 8,9 °C 5,0 °C 88 % 1021,9 hPa 0,0 l/m² 0 min 0 W/m² 6,4 km/h (2 Bft) 93,62 %
17.03.2026 22:48 9,7 °C 8,9 °C 5,0 °C 88 % 1021,9 hPa 0,0 l/m² 0 min 0 W/m² 6,4 km/h (2 Bft) 95,74 %
17.03.2026 22:50 9,7 °C 8,9 °C 5,0 °C 88 % 1022,0 hPa 0,0 l/m² 0 min 0 W/m² 12,9 km/h (3 Bft) 91,67 %
17.03.2026 22:52 9,7 °C 8,9 °C 5,0 °C 88 % 1021,9 hPa 0,0 l/m² 0 min 0 W/m² 16,1 km/h (3 Bft) 94,29 %
17.03.2026 22:54 9,7 °C 8,9 °C 5,0 °C 88 % 1022,0 hPa 0,0 l/m² 0 min 0 W/m² 9,7 km/h (2 Bft) 96,30 %
17.03.2026 22:56 9,7 °C 8,9 °C 5,0 °C 88 % 1022,0 hPa 0,0 l/m² 0 min 0 W/m² 6,4 km/h (2 Bft) 94,00 %
17.03.2026 22:58 9,7 °C 8,9 °C 5,0 °C 88 % 1022,0 hPa 0,0 l/m² 0 min 0 W/m² 12,9 km/h (3 Bft) 95,92 %
17.03.2026 23:00 9,7 °C 8,9 °C 5,0 °C 88 % 1022,0 hPa 0,0 l/m² 0 min 0 W/m² 12,9 km/h (3 Bft) 97,14 %
17.03.2026 23:02 9,7 °C 8,9 °C 5,0 °C 88 % 1021,9 hPa 0,0 l/m² 0 min 0 W/m² 16,1 km/h (3 Bft) 90,57 %
17.03.2026 23:04 9,7 °C 8,9 °C 5,0 °C 88 % 1022,0 hPa 0,0 l/m² 0 min 0 W/m² 16,1 km/h (3 Bft) 95,74 %
17.03.2026 23:06 9,7 °C 8,9 °C 5,0 °C 88 % 1022,0 hPa 0,0 l/m² 0 min 0 W/m² 9,7 km/h (2 Bft) 95,74 %
17.03.2026 23:08 9,7 °C 8,9 °C 5,0 °C 88 % 1022,0 hPa 0,0 l/m² 0 min 0 W/m² 16,1 km/h (3 Bft) 98,11 %
17.03.2026 23:10 9,7 °C 8,9 °C 5,0 °C 88 % 1022,0 hPa 0,0 l/m² 0 min 0 W/m² 16,1 km/h (3 Bft) 100,00 %
17.03.2026 23:12 9,7 °C 8,9 °C 5,0 °C 88 % 1022,0 hPa 0,0 l/m² 0 min 0 W/m² 16,1 km/h (3 Bft) 100,00 %
17.03.2026 23:14 9,7 °C 8,9 °C 5,0 °C 88 % 1022,1 hPa 0,0 l/m² 0 min 0 W/m² 12,9 km/h (3 Bft) 100,00 %
17.03.2026 23:16 9,7 °C 8,9 °C 5,6 °C 88 % 1022,1 hPa 0,0 l/m² 0 min 0 W/m² 19,3 km/h (3 Bft) 100,00 %
17.03.2026 23:18 9,7 °C 8,9 °C 5,0 °C 88 % 1022,1 hPa 0,0 l/m² 0 min 0 W/m² 12,9 km/h (3 Bft) 100,00 %
17.03.2026 23:20 9,7 °C 8,9 °C 5,0 °C 88 % 1022,1 hPa 0,0 l/m² 0 min 0 W/m² 12,9 km/h (3 Bft) 98,00 %
17.03.2026 23:22 9,7 °C 8,9 °C 5,0 °C 88 % 1022,1 hPa 0,0 l/m² 0 min 0 W/m² 6,4 km/h (2 Bft) 95,74 %
17.03.2026 23:24 9,7 °C 8,9 °C 5,0 °C 88 % 1022,1 hPa 0,0 l/m² 0 min 0 W/m² 16,1 km/h (3 Bft) 100,00 %
17.03.2026 23:26 9,7 °C 8,9 °C 5,0 °C 88 % 1022,1 hPa 0,0 l/m² 0 min 0 W/m² 12,9 km/h (3 Bft) 97,87 %
17.03.2026 23:28 9,7 °C 8,9 °C 5,0 °C 88 % 1022,1 hPa 0,0 l/m² 0 min 0 W/m² 16,1 km/h (3 Bft) 100,00 %
17.03.2026 23:30 9,7 °C 8,9 °C 5,0 °C 88 % 1022,2 hPa 0,0 l/m² 0 min 0 W/m² 12,9 km/h (3 Bft) 96,30 %
17.03.2026 23:32 9,7 °C 8,9 °C 5,0 °C 88 % 1022,2 hPa 0,0 l/m² 0 min 0 W/m² 16,1 km/h (3 Bft) 100,00 %
17.03.2026 23:34 9,7 °C 8,9 °C 5,0 °C 88 % 1022,2 hPa 0,0 l/m² 0 min 0 W/m² 16,1 km/h (3 Bft) 100,00 %
17.03.2026 23:36 9,7 °C 8,9 °C 5,0 °C 88 % 1022,2 hPa 0,0 l/m² 0 min 0 W/m² 16,1 km/h (3 Bft) 100,00 %
17.03.2026 23:38 9,7 °C 8,9 °C 5,0 °C 88 % 1022,2 hPa 0,0 l/m² 0 min 0 W/m² 12,9 km/h (3 Bft) 100,00 %
17.03.2026 23:40 9,7 °C 8,9 °C 5,0 °C 88 % 1022,2 hPa 0,0 l/m² 0 min 0 W/m² 9,7 km/h (2 Bft) 100,00 %
17.03.2026 23:42 9,7 °C 8,9 °C 5,0 °C 87 % 1022,2 hPa 0,0 l/m² 0 min 0 W/m² 16,1 km/h (3 Bft) 100,00 %
17.03.2026 23:44 9,7 °C 8,9 °C 5,0 °C 87 % 1022,2 hPa 0,0 l/m² 0 min 0 W/m² 16,1 km/h (3 Bft) 100,00 %
17.03.2026 23:46 9,7 °C 8,9 °C 5,0 °C 87 % 1022,2 hPa 0,0 l/m² 0 min 0 W/m² 12,9 km/h (3 Bft) 100,00 %
17.03.2026 23:48 9,7 °C 8,9 °C 5,0 °C 87 % 1022,2 hPa 0,0 l/m² 0 min 0 W/m² 12,9 km/h (3 Bft) 100,00 %
17.03.2026 23:50 9,7 °C 8,9 °C 5,0 °C 87 % 1022,3 hPa 0,0 l/m² 0 min 0 W/m² 12,9 km/h (3 Bft) 100,00 %
17.03.2026 23:52 9,6 °C 8,9 °C 5,0 °C 87 % 1022,2 hPa 0,0 l/m² 0 min 0 W/m² 12,9 km/h (3 Bft) 100,00 %
17.03.2026 23:54 9,6 °C 8,9 °C 5,0 °C 87 % 1022,2 hPa 0,0 l/m² 0 min 0 W/m² 16,1 km/h (3 Bft) 100,00 %
17.03.2026 23:56 9,6 °C 8,9 °C 5,0 °C 87 % 1022,2 hPa 0,0 l/m² 0 min 0 W/m² 16,1 km/h (3 Bft) 93,88 %
17.03.2026 23:58 9,6 °C 8,9 °C 5,0 °C 87 % 1022,2 hPa 0,0 l/m² 0 min 0 W/m² 12,9 km/h (3 Bft) 100,00 %
_ Min-Zeit 00:50 00:00 00:00 16:40 03:55 - - - 06:38 09:32
Minimum _ 7,1 °C 6,1 °C 2,8 °C 80 % 1020,1 hPa - - - 0,0 km/h (0 Bft) 48,72 %
_ Max-Zeit 16:36 13:28 13:30 07:04 23:50 00:00 13:14 13:14 09:36 00:00
Maximum _ 13,2 °C 14,4 °C 9,4 °C 93 % 1022,3 hPa 0,0 l/m² 2 min 298 W/m² 22,5 km/h
SW (4 Bft)
100,00 %
Durchschnitt _ 9,8 °C 9,3 °C 5,4 °C 88 % 1021,1 hPa #0,0 l/m² #28 min. 109 W/m² 9,0 km/h (2 Bft) 97,80 %
© 2026 W. Hausmann